Wetterdaten: Dienstag, 16.06.2020
Datum Zeit Temp. Aussen Temp. o. S. Temp +5cm Feuchte Auss Luftdruck Regen Sonnenschein Regendauer Solar Windben Empfang
16.06.2020 00:00 20,5 C 18,9 C 18,3 C 78 % 1016,4 hPa 0,0 l/m 0 min 0 min 0 W/m 6,4 km/h (2 Bft) 100,00 %
16.06.2020 00:02 20,5 C 18,9 C 18,3 C 78 % 1016,5 hPa 0,0 l/m 0 min 0 min 0 W/m 6,4 km/h (2 Bft) 100,00 %
16.06.2020 00:04 20,4 C 18,9 C 18,3 C 78 % 1016,5 hPa 0,0 l/m 0 min 0 min 0 W/m 0,0 km/h (0 Bft) 100,00 %
16.06.2020 00:08 20,4 C 18,9 C 18,3 C 78 % 1016,5 hPa 0,0 l/m 0 min 0 min 0 W/m 0,0 km/h (0 Bft) 100,00 %
16.06.2020 00:10 20,4 C 18,9 C 18,3 C 78 % 1016,5 hPa 0,0 l/m 0 min 0 min 0 W/m 0,0 km/h (0 Bft) 100,00 %
16.06.2020 00:12 20,4 C 18,9 C 18,3 C 78 % 1016,5 hPa 0,0 l/m 0 min 0 min 0 W/m 0,0 km/h (0 Bft) 100,00 %
16.06.2020 00:14 20,4 C 18,9 C 18,3 C 78 % 1016,5 hPa 0,0 l/m 0 min 0 min 0 W/m 0,0 km/h (0 Bft) 97,92 %
16.06.2020 00:16 20,4 C 18,9 C 18,3 C 79 % 1016,6 hPa 0,0 l/m 0 min 0 min 0 W/m 0,0 km/h (0 Bft) 95,83 %
16.06.2020 00:18 20,3 C 18,9 C 18,3 C 79 % 1016,5 hPa 0,0 l/m 0 min 0 min 0 W/m 0,0 km/h (0 Bft) 100,00 %
16.06.2020 00:20 20,3 C 18,3 C 17,8 C 79 % 1016,5 hPa 0,0 l/m 0 min 0 min 0 W/m 0,0 km/h (0 Bft) 100,00 %
16.06.2020 00:22 20,3 C 18,3 C 17,8 C 80 % 1016,5 hPa 0,0 l/m 0 min 0 min 0 W/m 0,0 km/h (0 Bft) 100,00 %
16.06.2020 00:24 20,3 C 18,3 C 17,8 C 80 % 1016,5 hPa 0,0 l/m 0 min 0 min 0 W/m 0,0 km/h (0 Bft) 100,00 %
16.06.2020 00:26 20,3 C 18,3 C 17,8 C 80 % 1016,5 hPa 0,0 l/m 0 min 0 min 0 W/m 0,0 km/h (0 Bft) 100,00 %
16.06.2020 00:28 20,3 C 18,3 C 17,8 C 80 % 1016,5 hPa 0,0 l/m 0 min 0 min 0 W/m 0,0 km/h (0 Bft) 100,00 %
16.06.2020 00:30 20,3 C 18,3 C 17,8 C 80 % 1016,5 hPa 0,0 l/m 0 min 0 min 0 W/m 0,0 km/h (0 Bft) 100,00 %
16.06.2020 00:32 20,2 C 18,3 C 17,8 C 80 % 1016,5 hPa 0,0 l/m 0 min 0 min 0 W/m 0,0 km/h (0 Bft) 100,00 %
16.06.2020 00:34 20,2 C 18,3 C 17,8 C 80 % 1016,5 hPa 0,0 l/m 0 min 0 min 0 W/m 0,0 km/h (0 Bft) 97,83 %
16.06.2020 00:36 20,2 C 18,3 C 17,8 C 80 % 1016,5 hPa 0,0 l/m 0 min 0 min 0 W/m 0,0 km/h (0 Bft) 100,00 %
16.06.2020 00:38 20,2 C 18,9 C 17,8 C 80 % 1016,5 hPa 0,0 l/m 0 min 0 min 0 W/m 0,0 km/h (0 Bft) 100,00 %
16.06.2020 00:40 20,1 C 18,3 C 17,8 C 80 % 1016,4 hPa 0,0 l/m 0 min 0 min 0 W/m 0,0 km/h (0 Bft) 97,87 %
16.06.2020 00:42 20,1 C 18,3 C 17,8 C 80 % 1016,5 hPa 0,0 l/m 0 min 0 min 0 W/m 0,0 km/h (0 Bft) 100,00 %
16.06.2020 00:44 20,1 C 18,9 C 17,8 C 80 % 1016,4 hPa 0,0 l/m 0 min 0 min 0 W/m 0,0 km/h (0 Bft) 97,83 %
16.06.2020 00:46 20,1 C 18,3 C 17,8 C 80 % 1016,5 hPa 0,0 l/m 0 min 0 min 0 W/m 0,0 km/h (0 Bft) 100,00 %
16.06.2020 00:48 20,1 C 18,3 C 17,8 C 80 % 1016,5 hPa 0,0 l/m 0 min 0 min 0 W/m 0,0 km/h (0 Bft) 100,00 %
16.06.2020 00:50 20,1 C 18,3 C 17,8 C 80 % 1016,5 hPa 0,0 l/m 0 min 0 min 0 W/m 0,0 km/h (0 Bft) 100,00 %
16.06.2020 00:52 20,0 C 18,3 C 17,8 C 80 % 1016,4 hPa 0,0 l/m 0 min 0 min 0 W/m 0,0 km/h (0 Bft) 100,00 %
16.06.2020 00:54 20,0 C 18,3 C 17,8 C 80 % 1016,4 hPa 0,0 l/m 0 min 0 min 0 W/m 0,0 km/h (0 Bft) 100,00 %
16.06.2020 00:56 19,9 C 18,3 C 17,8 C 81 % 1016,4 hPa 0,0 l/m 0 min 0 min 0 W/m 0,0 km/h (0 Bft) 97,92 %
16.06.2020 00:58 19,9 C 18,3 C 17,8 C 81 % 1016,4 hPa 0,0 l/m 0 min 0 min 0 W/m 0,0 km/h (0 Bft) 98,00 %
16.06.2020 01:00 19,9 C 18,3 C 17,8 C 81 % 1016,4 hPa 0,0 l/m 0 min 0 min 0 W/m 0,0 km/h (0 Bft) 97,87 %
16.06.2020 01:02 19,9 C 18,3 C 17,2 C 81 % 1016,4 hPa 0,0 l/m 0 min 0 min 0 W/m 0,0 km/h (0 Bft) 97,87 %
16.06.2020 01:04 19,9 C 18,3 C 17,8 C 81 % 1016,4 hPa 0,0 l/m 0 min 0 min 0 W/m 3,2 km/h (1 Bft) 97,87 %
16.06.2020 01:06 19,9 C 18,3 C 17,8 C 81 % 1016,4 hPa 0,0 l/m 0 min 0 min 0 W/m 0,0 km/h (0 Bft) 93,62 %
16.06.2020 01:08 19,8 C 18,3 C 17,8 C 81 % 1016,4 hPa 0,0 l/m 0 min 0 min 0 W/m 0,0 km/h (0 Bft) 97,83 %
16.06.2020 01:10 19,8 C 18,3 C 17,8 C 81 % 1016,3 hPa 0,0 l/m 0 min 0 min 0 W/m 0,0 km/h (0 Bft) 95,74 %
16.06.2020 01:12 19,8 C 18,3 C 17,8 C 81 % 1016,3 hPa 0,0 l/m 0 min 0 min 0 W/m 3,2 km/h (1 Bft) 95,74 %
16.06.2020 01:14 19,8 C 18,3 C 17,8 C 81 % 1016,3 hPa 0,0 l/m 0 min 0 min 0 W/m 3,2 km/h (1 Bft) 95,74 %
16.06.2020 01:16 19,8 C 18,9 C 17,8 C 81 % 1016,3 hPa 0,0 l/m 0 min 0 min 0 W/m 3,2 km/h (1 Bft) 95,74 %
16.06.2020 01:18 19,7 C 18,9 C 17,8 C 81 % 1016,3 hPa 0,0 l/m 0 min 0 min 0 W/m 3,2 km/h (1 Bft) 95,74 %
16.06.2020 01:20 19,7 C 18,9 C 18,3 C 81 % 1016,3 hPa 0,0 l/m 0 min 0 min 0 W/m 0,0 km/h (0 Bft) 95,65 %
16.06.2020 01:22 19,7 C 18,9 C 18,3 C 81 % 1016,3 hPa 0,0 l/m 0 min 0 min 0 W/m 0,0 km/h (0 Bft) 93,62 %
16.06.2020 01:24 19,7 C 18,9 C 17,8 C 81 % 1016,3 hPa 0,0 l/m 0 min 0 min 0 W/m 0,0 km/h (0 Bft) 91,49 %
16.06.2020 01:26 19,7 C 18,9 C 17,8 C 81 % 1016,3 hPa 0,0 l/m 0 min 0 min 0 W/m 3,2 km/h (1 Bft) 93,62 %
16.06.2020 01:28 19,7 C 18,9 C 17,8 C 81 % 1016,3 hPa 0,0 l/m 0 min 0 min 0 W/m 6,4 km/h (2 Bft) 97,56 %
16.06.2020 01:30 19,7 C 18,9 C 17,8 C 81 % 1016,3 hPa 0,0 l/m 0 min 0 min 0 W/m 3,2 km/h (1 Bft) 95,74 %
16.06.2020 01:32 19,6 C 18,9 C 17,8 C 81 % 1016,3 hPa 0,0 l/m 0 min 0 min 0 W/m 0,0 km/h (0 Bft) 94,34 %
16.06.2020 01:34 19,6 C 18,3 C 17,8 C 81 % 1016,2 hPa 0,0 l/m 0 min 0 min 0 W/m 3,2 km/h (1 Bft) 93,62 %
16.06.2020 01:36 19,6 C 18,3 C 17,8 C 81 % 1016,3 hPa 0,0 l/m 0 min 0 min 0 W/m 0,0 km/h (0 Bft) 92,86 %
16.06.2020 01:38 19,6 C 18,3 C 17,8 C 81 % 1016,2 hPa 0,0 l/m 0 min 0 min 0 W/m 3,2 km/h (1 Bft) 93,62 %
16.06.2020 01:40 19,6 C 18,3 C 17,8 C 81 % 1016,3 hPa 0,0 l/m 0 min 0 min 0 W/m 3,2 km/h (1 Bft) 95,65 %
16.06.2020 01:42 19,6 C 18,3 C 17,8 C 81 % 1016,2 hPa 0,0 l/m 0 min 2 min 0 W/m 3,2 km/h (1 Bft) 93,62 %
16.06.2020 01:44 19,6 C 18,3 C 17,8 C 81 % 1016,3 hPa 0,0 l/m 0 min 2 min 0 W/m 0,0 km/h (0 Bft) 97,87 %
16.06.2020 01:46 19,6 C 18,3 C 17,8 C 81 % 1016,2 hPa 0,0 l/m 0 min 2 min 0 W/m 0,0 km/h (0 Bft) 93,62 %
16.06.2020 01:48 19,6 C 18,3 C 17,8 C 82 % 1016,2 hPa 0,0 l/m 0 min 0 min 0 W/m 0,0 km/h (0 Bft) 95,74 %
16.06.2020 01:50 19,6 C 18,3 C 17,8 C 82 % 1016,2 hPa 0,0 l/m 0 min 0 min 0 W/m 6,4 km/h (2 Bft) 95,74 %
16.06.2020 01:52 19,6 C 18,3 C 17,8 C 82 % 1016,2 hPa 0,0 l/m 0 min 0 min 0 W/m 3,2 km/h (1 Bft) 95,74 %
16.06.2020 01:54 19,6 C 18,3 C 17,8 C 82 % 1016,1 hPa 0,0 l/m 0 min 0 min 0 W/m 6,4 km/h (2 Bft) 95,74 %
16.06.2020 01:56 19,6 C 18,3 C 17,8 C 82 % 1016,1 hPa 0,0 l/m 0 min 0 min 0 W/m 3,2 km/h (1 Bft) 93,62 %
16.06.2020 01:58 19,6 C 18,3 C 17,8 C 82 % 1016,1 hPa 0,0 l/m 0 min 0 min 0 W/m 0,0 km/h (0 Bft) 95,74 %
16.06.2020 02:00 19,6 C 18,3 C 17,8 C 82 % 1016,1 hPa 0,0 l/m 0 min 0 min 0 W/m 6,4 km/h (2 Bft) 95,74 %
16.06.2020 02:02 19,6 C 18,3 C 17,8 C 82 % 1016,1 hPa 0,0 l/m 0 min 0 min 0 W/m 3,2 km/h (1 Bft) 95,65 %
16.06.2020 02:04 19,6 C 18,3 C 17,8 C 83 % 1016,1 hPa 0,0 l/m 0 min 0 min 0 W/m 12,9 km/h (3 Bft) 93,62 %
16.06.2020 02:06 19,6 C 18,3 C 17,8 C 83 % 1016,1 hPa 0,0 l/m 0 min 0 min 0 W/m 12,9 km/h (3 Bft) 95,74 %
16.06.2020 02:08 19,5 C 17,8 C 17,8 C 83 % 1016,1 hPa 0,0 l/m 0 min 2 min 0 W/m 6,4 km/h (2 Bft) 95,74 %
16.06.2020 02:10 19,5 C 17,8 C 17,8 C 83 % 1016,1 hPa 0,0 l/m 0 min 2 min 0 W/m 6,4 km/h (2 Bft) 95,74 %
16.06.2020 02:12 19,5 C 17,8 C 17,8 C 83 % 1016,1 hPa 0,0 l/m 0 min 0 min 0 W/m 3,2 km/h (1 Bft) 97,87 %
16.06.2020 02:14 19,5 C 17,8 C 17,8 C 83 % 1016,1 hPa 0,0 l/m 0 min 2 min 0 W/m 3,2 km/h (1 Bft) 97,87 %
16.06.2020 02:16 19,4 C 17,8 C 17,8 C 83 % 1016,1 hPa 0,0 l/m 0 min 2 min 0 W/m 6,4 km/h (2 Bft) 97,92 %
16.06.2020 02:18 19,4 C 17,8 C 17,8 C 83 % 1016,1 hPa 0,0 l/m 0 min 0 min 0 W/m 6,4 km/h (2 Bft) 93,75 %
16.06.2020 02:20 19,4 C 17,8 C 17,8 C 84 % 1016,1 hPa 0,0 l/m 0 min 0 min 0 W/m 3,2 km/h (1 Bft) 97,92 %
16.06.2020 02:22 19,4 C 17,8 C 17,2 C 84 % 1016,0 hPa 0,0 l/m 0 min 0 min 0 W/m 3,2 km/h (1 Bft) 97,87 %
16.06.2020 02:24 19,4 C 17,2 C 17,2 C 84 % 1016,1 hPa 0,0 l/m 0 min 0 min 0 W/m 12,9 km/h (3 Bft) 97,87 %
16.06.2020 02:26 19,4 C 17,2 C 17,2 C 84 % 1016,1 hPa 0,0 l/m 0 min 0 min 0 W/m 6,4 km/h (2 Bft) 97,87 %
16.06.2020 02:28 19,3 C 17,2 C 17,2 C 84 % 1016,1 hPa 0,0 l/m 0 min 2 min 0 W/m 3,2 km/h (1 Bft) 98,00 %
16.06.2020 02:30 19,3 C 17,2 C 17,2 C 84 % 1016,1 hPa 0,0 l/m 0 min 0 min 0 W/m 6,4 km/h (2 Bft) 97,87 %
16.06.2020 02:32 19,3 C 17,2 C 17,2 C 85 % 1016,1 hPa 0,0 l/m 0 min 2 min 0 W/m 3,2 km/h (1 Bft) 97,87 %
16.06.2020 02:34 19,3 C 17,2 C 17,2 C 85 % 1016,0 hPa 0,0 l/m 0 min 2 min 0 W/m 6,4 km/h (2 Bft) 97,87 %
16.06.2020 02:36 19,3 C 17,2 C 17,2 C 85 % 1016,1 hPa 0,0 l/m 0 min 2 min 0 W/m 6,4 km/h (2 Bft) 97,87 %
16.06.2020 02:38 19,2 C 17,2 C 17,2 C 85 % 1016,1 hPa 0,0 l/m 0 min 2 min 0 W/m 0,0 km/h (0 Bft) 97,87 %
16.06.2020 02:40 19,2 C 16,7 C 16,7 C 85 % 1016,1 hPa 0,0 l/m 0 min 2 min 0 W/m 3,2 km/h (1 Bft) 100,00 %
16.06.2020 02:42 19,2 C 16,7 C 16,7 C 85 % 1016,1 hPa 0,0 l/m 0 min 2 min 0 W/m 6,4 km/h (2 Bft) 100,00 %
16.06.2020 02:44 19,2 C 16,1 C 16,7 C 86 % 1016,1 hPa 0,0 l/m 0 min 2 min 0 W/m 6,4 km/h (2 Bft) 100,00 %
16.06.2020 02:46 19,2 C 16,1 C 16,7 C 86 % 1016,0 hPa 0,0 l/m 0 min 2 min 0 W/m 6,4 km/h (2 Bft) 100,00 %
16.06.2020 02:48 19,2 C 16,1 C 16,1 C 86 % 1016,0 hPa 0,0 l/m 0 min 2 min 0 W/m 6,4 km/h (2 Bft) 100,00 %
16.06.2020 02:50 19,1 C 16,1 C 16,1 C 86 % 1016,0 hPa 0,0 l/m 0 min 2 min 0 W/m 6,4 km/h (2 Bft) 97,87 %
16.06.2020 02:52 19,1 C 16,1 C 16,1 C 87 % 1016,0 hPa 0,0 l/m 0 min 2 min 0 W/m 16,1 km/h (3 Bft) 100,00 %
16.06.2020 02:54 19,1 C 16,1 C 16,1 C 87 % 1016,0 hPa 0,0 l/m 0 min 2 min 0 W/m 6,4 km/h (2 Bft) 100,00 %
16.06.2020 02:56 19,1 C 16,1 C 16,1 C 87 % 1015,9 hPa 0,2 l/m 0 min 2 min 0 W/m 12,9 km/h (3 Bft) 100,00 %
16.06.2020 02:58 19,0 C 16,1 C 16,1 C 88 % 1015,9 hPa 0,0 l/m 0 min 2 min 0 W/m 0,0 km/h (0 Bft) 100,00 %
16.06.2020 03:00 19,0 C 16,1 C 16,1 C 88 % 1015,9 hPa 0,0 l/m 0 min 2 min 0 W/m 3,2 km/h (1 Bft) 100,00 %
16.06.2020 03:02 18,9 C 16,1 C 15,6 C 88 % 1016,0 hPa 0,0 l/m 0 min 2 min 0 W/m 0,0 km/h (0 Bft) 100,00 %
16.06.2020 03:04 18,9 C 16,1 C 15,6 C 88 % 1016,0 hPa 0,0 l/m 0 min 2 min 0 W/m 0,0 km/h (0 Bft) 100,00 %
16.06.2020 03:06 18,9 C 16,1 C 15,6 C 88 % 1015,9 hPa 0,0 l/m 0 min 2 min 0 W/m 0,0 km/h (0 Bft) 100,00 %
16.06.2020 03:08 18,9 C 16,1 C 15,6 C 88 % 1016,0 hPa 0,0 l/m 0 min 2 min 0 W/m 3,2 km/h (1 Bft) 100,00 %
16.06.2020 03:10 18,8 C 16,1 C 15,6 C 88 % 1015,9 hPa 0,0 l/m 0 min 0 min 0 W/m 0,0 km/h (0 Bft) 100,00 %
16.06.2020 03:12 18,8 C 16,1 C 15,6 C 88 % 1015,9 hPa 0,0 l/m 0 min 2 min 0 W/m 3,2 km/h (1 Bft) 100,00 %
16.06.2020 03:14 18,8 C 16,1 C 15,6 C 89 % 1015,9 hPa 0,0 l/m 0 min 2 min 0 W/m 0,0 km/h (0 Bft) 100,00 %
16.06.2020 03:16 18,7 C 16,1 C 15,6 C 89 % 1016,0 hPa 0,0 l/m 0 min 2 min 0 W/m 0,0 km/h (0 Bft) 100,00 %
16.06.2020 03:18 18,7 C 16,1 C 15,6 C 89 % 1016,0 hPa 0,0 l/m 0 min 2 min 0 W/m 0,0 km/h (0 Bft) 97,87 %
16.06.2020 03:20 18,7 C 16,1 C 16,1 C 89 % 1016,0 hPa 0,0 l/m 0 min 2 min 0 W/m 0,0 km/h (0 Bft) 100,00 %
16.06.2020 03:22 18,6 C 16,1 C 16,1 C 89 % 1016,0 hPa 0,0 l/m 0 min 2 min 0 W/m 0,0 km/h (0 Bft) 100,00 %
16.06.2020 03:24 18,6 C 15,6 C 16,1 C 89 % 1016,0 hPa 0,0 l/m 0 min 2 min 0 W/m 0,0 km/h (0 Bft) 100,00 %
16.06.2020 03:26 18,6 C 15,6 C 15,6 C 89 % 1016,0 hPa 0,0 l/m 0 min 2 min 0 W/m 0,0 km/h (0 Bft) 100,00 %
16.06.2020 03:28 18,6 C 15,6 C 16,1 C 89 % 1016,0 hPa 0,0 l/m 0 min 2 min 0 W/m 0,0 km/h (0 Bft) 100,00 %
16.06.2020 03:30 18,5 C 15,6 C 16,1 C 89 % 1016,0 hPa 0,0 l/m 0 min 2 min 0 W/m 0,0 km/h (0 Bft) 100,00 %
16.06.2020 03:32 18,5 C 16,1 C 16,1 C 89 % 1016,1 hPa 0,0 l/m 0 min 0 min 0 W/m 0,0 km/h (0 Bft) 100,00 %
16.06.2020 03:34 18,4 C 15,6 C 16,1 C 89 % 1016,0 hPa 0,0 l/m 0 min 2 min 0 W/m 0,0 km/h (0 Bft) 100,00 %
16.06.2020 03:36 18,4 C 15,6 C 16,1 C 89 % 1016,0 hPa 0,0 l/m 0 min 0 min 0 W/m 0,0 km/h (0 Bft) 100,00 %
16.06.2020 03:38 18,4 C 16,1 C 15,6 C 89 % 1016,0 hPa 0,0 l/m 0 min 0 min 0 W/m 0,0 km/h (0 Bft) 100,00 %
16.06.2020 03:40 18,4 C 16,1 C 16,1 C 89 % 1016,0 hPa 0,0 l/m 0 min 0 min 0 W/m 0,0 km/h (0 Bft) 100,00 %
16.06.2020 03:42 18,4 C 16,1 C 16,1 C 89 % 1016,0 hPa 0,0 l/m 0 min 2 min 0 W/m 0,0 km/h (0 Bft) 100,00 %
16.06.2020 03:44 18,3 C 15,6 C 16,1 C 90 % 1015,9 hPa 0,0 l/m 0 min 2 min 0 W/m 0,0 km/h (0 Bft) 100,00 %
16.06.2020 03:46 18,3 C 15,6 C 16,1 C 90 % 1016,0 hPa 0,0 l/m 0 min 2 min 0 W/m 0,0 km/h (0 Bft) 100,00 %
16.06.2020 03:48 18,3 C 15,6 C 16,1 C 90 % 1016,0 hPa 0,0 l/m 0 min 2 min 0 W/m 0,0 km/h (0 Bft) 97,92 %
16.06.2020 03:50 18,3 C 15,6 C 16,1 C 90 % 1016,0 hPa 0,0 l/m 0 min 2 min 0 W/m 0,0 km/h (0 Bft) 95,65 %
16.06.2020 03:52 18,3 C 15,6 C 15,6 C 90 % 1015,9 hPa 0,0 l/m 0 min 2 min 0 W/m 0,0 km/h (0 Bft) 93,62 %
16.06.2020 03:54 18,3 C 15,6 C 15,6 C 90 % 1015,9 hPa 0,2 l/m 0 min 2 min 0 W/m 0,0 km/h (0 Bft) 97,87 %
16.06.2020 03:56 18,3 C 15,6 C 15,6 C 90 % 1015,9 hPa 0,0 l/m 0 min 2 min 0 W/m 0,0 km/h (0 Bft) 95,74 %
16.06.2020 03:58 18,2 C 15,6 C 15,6 C 90 % 1016,0 hPa 0,0 l/m 0 min 2 min 0 W/m 0,0 km/h (0 Bft) 95,24 %
16.06.2020 04:00 18,2 C 15,6 C 15,6 C 90 % 1015,9 hPa 0,0 l/m 0 min 2 min 0 W/m 3,2 km/h (1 Bft) 93,62 %
16.06.2020 04:02 18,2 C 15,6 C 15,6 C 91 % 1015,9 hPa 0,0 l/m 0 min 2 min 0 W/m 0,0 km/h (0 Bft) 96,88 %
16.06.2020 04:04 18,2 C 15,6 C 15,6 C 91 % 1015,9 hPa 0,0 l/m 0 min 2 min 0 W/m 0,0 km/h (0 Bft) 97,87 %
16.06.2020 04:06 18,2 C 15,6 C 15,6 C 91 % 1015,9 hPa 0,0 l/m 0 min 2 min 0 W/m 0,0 km/h (0 Bft) 97,92 %
16.06.2020 04:08 18,2 C 15,6 C 15,6 C 91 % 1015,9 hPa 0,0 l/m 0 min 2 min 0 W/m 0,0 km/h (0 Bft) 97,87 %
16.06.2020 04:10 18,1 C 15,6 C 15,6 C 91 % 1015,9 hPa 0,0 l/m 0 min 2 min 0 W/m 0,0 km/h (0 Bft) 97,87 %
16.06.2020 04:12 18,1 C 15,6 C 15,6 C 91 % 1015,9 hPa 0,0 l/m 0 min 2 min 0 W/m 0,0 km/h (0 Bft) 97,83 %
16.06.2020 04:14 18,1 C 15,6 C 15,6 C 91 % 1015,8 hPa 0,0 l/m 0 min 2 min 0 W/m 0,0 km/h (0 Bft) 93,62 %
16.06.2020 04:16 18,1 C 15,6 C 15,6 C 92 % 1015,8 hPa 0,0 l/m 0 min 2 min 0 W/m 0,0 km/h (0 Bft) 97,87 %
16.06.2020 04:18 18,1 C 15,6 C 15,6 C 92 % 1015,8 hPa 0,2 l/m 0 min 0 min 0 W/m 0,0 km/h (0 Bft) 97,87 %
16.06.2020 04:20 18,1 C 15,6 C 15,6 C 92 % 1015,8 hPa 0,0 l/m 0 min 0 min 0 W/m 0,0 km/h (0 Bft) 97,87 %
16.06.2020 04:22 18,0 C 15,6 C 15,6 C 92 % 1015,8 hPa 0,0 l/m 0 min 2 min 0 W/m 0,0 km/h (0 Bft) 97,87 %
16.06.2020 04:24 18,0 C 15,6 C 15,6 C 92 % 1015,8 hPa 0,0 l/m 0 min 2 min 0 W/m 0,0 km/h (0 Bft) 95,65 %
16.06.2020 04:26 18,0 C 15,6 C 15,6 C 92 % 1015,8 hPa 0,0 l/m 0 min 2 min 0 W/m 3,2 km/h (1 Bft) 95,74 %
16.06.2020 04:28 18,0 C 15,6 C 15,6 C 92 % 1015,7 hPa 0,0 l/m 0 min 2 min 0 W/m 0,0 km/h (0 Bft) 97,87 %
16.06.2020 04:30 17,9 C 15,6 C 15,6 C 92 % 1015,8 hPa 0,0 l/m 0 min 2 min 0 W/m 0,0 km/h (0 Bft) 95,74 %
16.06.2020 04:32 17,9 C 15,6 C 15,6 C 92 % 1015,7 hPa 0,0 l/m 0 min 2 min 0 W/m 3,2 km/h (1 Bft) 93,62 %
16.06.2020 04:34 17,9 C 15,6 C 15,6 C 92 % 1015,7 hPa 0,0 l/m 0 min 2 min 0 W/m 3,2 km/h (1 Bft) 97,87 %
16.06.2020 04:36 17,9 C 15,6 C 15,6 C 92 % 1015,7 hPa 0,0 l/m 0 min 2 min 0 W/m 0,0 km/h (0 Bft) 92,68 %
16.06.2020 04:38 17,9 C 15,6 C 15,6 C 92 % 1015,7 hPa 0,0 l/m 0 min 2 min 0 W/m 0,0 km/h (0 Bft) 97,87 %
16.06.2020 04:40 17,9 C 15,6 C 15,6 C 92 % 1015,6 hPa 0,0 l/m 0 min 2 min 0 W/m 0,0 km/h (0 Bft) 97,87 %
16.06.2020 04:42 17,8 C 15,6 C 15,6 C 92 % 1015,6 hPa 0,0 l/m 0 min 2 min 0 W/m 0,0 km/h (0 Bft) 95,74 %
16.06.2020 04:44 17,8 C 15,6 C 15,6 C 93 % 1015,7 hPa 0,0 l/m 0 min 2 min 0 W/m 0,0 km/h (0 Bft) 97,83 %
16.06.2020 04:46 17,8 C 15,6 C 15,6 C 93 % 1015,6 hPa 0,0 l/m 0 min 0 min 0 W/m 0,0 km/h (0 Bft) 95,74 %
16.06.2020 04:48 17,8 C 15,6 C 15,6 C 93 % 1015,6 hPa 0,0 l/m 0 min 2 min 0 W/m 0,0 km/h (0 Bft) 97,87 %
16.06.2020 04:50 17,8 C 15,6 C 15,6 C 93 % 1015,6 hPa 0,0 l/m 0 min 0 min 0 W/m 0,0 km/h (0 Bft) 97,87 %
16.06.2020 04:52 17,8 C 15,6 C 15,6 C 93 % 1015,6 hPa 0,0 l/m 0 min 2 min 0 W/m 0,0 km/h (0 Bft) 97,87 %
16.06.2020 04:54 17,8 C 15,6 C 15,6 C 93 % 1015,6 hPa 0,0 l/m 0 min 2 min 0 W/m 0,0 km/h (0 Bft) 97,87 %
16.06.2020 04:56 17,8 C 15,6 C 15,6 C 93 % 1015,6 hPa 0,0 l/m 0 min 2 min 0 W/m 0,0 km/h (0 Bft) 91,30 %
16.06.2020 04:58 17,8 C 15,6 C 15,6 C 93 % 1015,6 hPa 0,0 l/m 0 min 2 min 0 W/m 0,0 km/h (0 Bft) 95,74 %
16.06.2020 05:00 17,7 C 15,6 C 15,6 C 93 % 1015,6 hPa 0,0 l/m 0 min 2 min 0 W/m 0,0 km/h (0 Bft) 93,62 %
16.06.2020 05:02 17,7 C 15,6 C 15,6 C 93 % 1015,6 hPa 0,0 l/m 0 min 2 min 0 W/m 0,0 km/h (0 Bft) 95,74 %
16.06.2020 05:04 17,7 C 15,6 C 15,6 C 93 % 1015,6 hPa 0,2 l/m 0 min 2 min 0 W/m 0,0 km/h (0 Bft) 93,62 %
16.06.2020 05:06 17,7 C 15,6 C 15,6 C 93 % 1015,6 hPa 0,0 l/m 0 min 2 min 0 W/m 0,0 km/h (0 Bft) 95,74 %
16.06.2020 05:08 17,7 C 15,6 C 15,6 C 93 % 1015,7 hPa 0,0 l/m 0 min 2 min 0 W/m 0,0 km/h (0 Bft) 95,65 %
16.06.2020 05:10 17,7 C 15,6 C 15,6 C 93 % 1015,7 hPa 0,0 l/m 0 min 2 min 0 W/m 0,0 km/h (0 Bft) 95,74 %
16.06.2020 05:12 17,7 C 15,6 C 15,6 C 93 % 1015,7 hPa 0,0 l/m 0 min 0 min 0 W/m 0,0 km/h (0 Bft) 95,74 %
16.06.2020 05:14 17,7 C 15,6 C 15,6 C 93 % 1015,7 hPa 0,0 l/m 0 min 0 min 0 W/m 0,0 km/h (0 Bft) 95,83 %
16.06.2020 05:16 17,6 C 15,6 C 15,6 C 93 % 1015,7 hPa 0,0 l/m 0 min 0 min 0 W/m 0,0 km/h (0 Bft) 97,87 %
16.06.2020 05:18 17,6 C 15,6 C 15,6 C 93 % 1015,7 hPa 0,0 l/m 0 min 2 min 0 W/m 0,0 km/h (0 Bft) 97,92 %
16.06.2020 05:20 17,6 C 15,6 C 15,6 C 93 % 1015,7 hPa 0,0 l/m 0 min 0 min 0 W/m 0,0 km/h (0 Bft) 97,83 %
16.06.2020 05:22 17,6 C 15,6 C 15,6 C 93 % 1015,7 hPa 0,0 l/m 0 min 0 min 0 W/m 0,0 km/h (0 Bft) 100,00 %
16.06.2020 05:24 17,6 C 15,6 C 15,6 C 94 % 1015,7 hPa 0,0 l/m 0 min 0 min 0 W/m 0,0 km/h (0 Bft) 97,87 %
16.06.2020 05:26 17,6 C 15,6 C 15,6 C 94 % 1015,7 hPa 0,0 l/m 0 min 0 min 0 W/m 0,0 km/h (0 Bft) 97,87 %
16.06.2020 05:28 17,6 C 15,6 C 15,6 C 94 % 1015,8 hPa 0,0 l/m 0 min 0 min 0 W/m 0,0 km/h (0 Bft) 97,87 %
16.06.2020 05:30 17,6 C 15,6 C 15,6 C 94 % 1015,8 hPa 0,0 l/m 0 min 0 min 0 W/m 0,0 km/h (0 Bft) 97,87 %
16.06.2020 05:32 17,6 C 15,6 C 15,6 C 94 % 1015,8 hPa 0,0 l/m 0 min 2 min 0 W/m 0,0 km/h (0 Bft) 97,83 %
16.06.2020 05:34 17,5 C 15,6 C 15,6 C 94 % 1015,8 hPa 0,0 l/m 0 min 2 min 0 W/m 0,0 km/h (0 Bft) 97,92 %
16.06.2020 05:36 17,5 C 15,6 C 15,6 C 94 % 1015,8 hPa 0,0 l/m 0 min 2 min 0 W/m 0,0 km/h (0 Bft) 95,83 %
16.06.2020 05:38 17,5 C 15,6 C 15,6 C 94 % 1015,8 hPa 0,0 l/m 0 min 0 min 0 W/m 0,0 km/h (0 Bft) 97,87 %
16.06.2020 05:40 17,5 C 15,6 C 15,6 C 94 % 1015,8 hPa 0,0 l/m 0 min 2 min 0 W/m 3,2 km/h (1 Bft) 95,74 %
16.06.2020 05:42 17,5 C 15,6 C 15,6 C 94 % 1015,8 hPa 0,0 l/m 0 min 2 min 0 W/m 0,0 km/h (0 Bft) 97,83 %
16.06.2020 05:44 17,5 C 15,6 C 15,6 C 94 % 1015,9 hPa 0,0 l/m 0 min 2 min 2 W/m 0,0 km/h (0 Bft) 97,92 %
16.06.2020 05:46 17,5 C 15,6 C 15,6 C 94 % 1015,9 hPa 0,0 l/m 0 min 2 min 5 W/m 0,0 km/h (0 Bft) 97,87 %
16.06.2020 05:48 17,5 C 15,6 C 15,6 C 94 % 1015,9 hPa 0,0 l/m 0 min 0 min 5 W/m 0,0 km/h (0 Bft) 97,87 %
16.06.2020 05:50 17,5 C 15,6 C 15,6 C 94 % 1015,9 hPa 0,0 l/m 0 min 0 min 5 W/m 0,0 km/h (0 Bft) 97,87 %
16.06.2020 05:52 17,4 C 15,6 C 15,6 C 94 % 1015,9 hPa 0,0 l/m 0 min 0 min 5 W/m 0,0 km/h (0 Bft) 97,87 %
16.06.2020 05:54 17,4 C 15,6 C 15,6 C 94 % 1015,9 hPa 0,0 l/m 0 min 2 min 5 W/m 0,0 km/h (0 Bft) 97,87 %
16.06.2020 05:56 17,4 C 15,6 C 15,6 C 94 % 1015,9 hPa 0,0 l/m 0 min 2 min 7 W/m 0,0 km/h (0 Bft) 100,00 %
16.06.2020 05:58 17,4 C 15,6 C 15,6 C 95 % 1015,9 hPa 0,0 l/m 0 min 2 min 7 W/m 0,0 km/h (0 Bft) 97,87 %
16.06.2020 06:00 17,4 C 15,6 C 15,6 C 95 % 1015,9 hPa 0,0 l/m 0 min 2 min 7 W/m 0,0 km/h (0 Bft) 100,00 %
16.06.2020 06:02 17,4 C 15,6 C 15,6 C 95 % 1015,9 hPa 0,0 l/m 0 min 2 min 7 W/m 0,0 km/h (0 Bft) 97,87 %
16.06.2020 06:04 17,4 C 15,6 C 15,6 C 95 % 1015,9 hPa 0,0 l/m 0 min 2 min 7 W/m 0,0 km/h (0 Bft) 100,00 %
16.06.2020 06:06 17,4 C 15,6 C 15,6 C 95 % 1015,9 hPa 0,0 l/m 0 min 2 min 8 W/m 0,0 km/h (0 Bft) 100,00 %
16.06.2020 06:08 17,4 C 15,6 C 15,6 C 95 % 1015,9 hPa 0,0 l/m 0 min 2 min 9 W/m 0,0 km/h (0 Bft) 100,00 %
16.06.2020 06:10 17,4 C 15,6 C 15,6 C 95 % 1015,9 hPa 0,0 l/m 0 min 2 min 9 W/m 0,0 km/h (0 Bft) 100,00 %
16.06.2020 06:12 17,4 C 15,6 C 15,6 C 95 % 1015,9 hPa 0,2 l/m 0 min 2 min 9 W/m 0,0 km/h (0 Bft) 97,87 %
16.06.2020 06:14 17,4 C 15,6 C 15,6 C 95 % 1016,0 hPa 0,0 l/m 0 min 2 min 9 W/m 0,0 km/h (0 Bft) 100,00 %
16.06.2020 06:16 17,4 C 15,6 C 15,6 C 95 % 1015,9 hPa 0,0 l/m 0 min 2 min 11 W/m 0,0 km/h (0 Bft) 100,00 %
16.06.2020 06:18 17,4 C 15,6 C 15,6 C 95 % 1015,9 hPa 0,0 l/m 0 min 0 min 11 W/m 0,0 km/h (0 Bft) 100,00 %
16.06.2020 06:20 17,4 C 15,6 C 15,6 C 95 % 1015,9 hPa 0,0 l/m 0 min 0 min 12 W/m 3,2 km/h (1 Bft) 100,00 %
16.06.2020 06:22 17,4 C 15,6 C 15,6 C 95 % 1015,9 hPa 0,0 l/m 0 min 0 min 12 W/m 0,0 km/h (0 Bft) 100,00 %
16.06.2020 06:24 17,4 C 15,6 C 15,6 C 95 % 1016,0 hPa 0,0 l/m 0 min 0 min 12 W/m 0,0 km/h (0 Bft) 100,00 %
16.06.2020 06:26 17,4 C 15,6 C 15,6 C 95 % 1016,0 hPa 0,0 l/m 0 min 2 min 14 W/m 3,2 km/h (1 Bft) 100,00 %
16.06.2020 06:28 17,4 C 15,6 C 15,6 C 95 % 1015,9 hPa 0,0 l/m 0 min 0 min 14 W/m 3,2 km/h (1 Bft) 100,00 %
16.06.2020 06:30 17,4 C 15,6 C 15,6 C 96 % 1016,0 hPa 0,0 l/m 0 min 0 min 15 W/m 0,0 km/h (0 Bft) 100,00 %
16.06.2020 06:32 17,4 C 15,6 C 15,6 C 96 % 1015,9 hPa 0,0 l/m 0 min 0 min 16 W/m 3,2 km/h (1 Bft) 100,00 %
16.06.2020 06:34 17,4 C 15,6 C 15,6 C 96 % 1015,9 hPa 0,0 l/m 0 min 0 min 17 W/m 3,2 km/h (1 Bft) 100,00 %
16.06.2020 06:36 17,4 C 15,6 C 15,6 C 96 % 1015,9 hPa 0,0 l/m 0 min 0 min 18 W/m 3,2 km/h (1 Bft) 97,92 %
16.06.2020 06:38 17,3 C 15,6 C 15,6 C 96 % 1015,9 hPa 0,0 l/m 0 min 0 min 18 W/m 6,4 km/h (2 Bft) 100,00 %
16.06.2020 06:40 17,3 C 15,6 C 15,6 C 96 % 1015,9 hPa 0,0 l/m 0 min 0 min 19 W/m 3,2 km/h (1 Bft) 97,87 %
16.06.2020 06:42 17,3 C 15,6 C 15,6 C 96 % 1015,9 hPa 0,0 l/m 0 min 0 min 19 W/m 6,4 km/h (2 Bft) 97,87 %
16.06.2020 06:44 17,3 C 15,6 C 15,6 C 96 % 1015,9 hPa 0,0 l/m 0 min 0 min 21 W/m 6,4 km/h (2 Bft) 97,87 %
16.06.2020 06:46 17,3 C 15,6 C 15,6 C 96 % 1015,9 hPa 0,0 l/m 0 min 0 min 22 W/m 3,2 km/h (1 Bft) 97,87 %
16.06.2020 06:48 17,3 C 15,6 C 15,6 C 96 % 1015,9 hPa 0,0 l/m 0 min 0 min 23 W/m 3,2 km/h (1 Bft) 97,87 %
16.06.2020 06:50 17,3 C 15,6 C 15,6 C 96 % 1015,9 hPa 0,0 l/m 0 min 0 min 25 W/m 3,2 km/h (1 Bft) 97,87 %
16.06.2020 06:52 17,3 C 15,6 C 15,6 C 96 % 1015,9 hPa 0,0 l/m 0 min 0 min 26 W/m 0,0 km/h (0 Bft) 97,87 %
16.06.2020 06:54 17,3 C 15,6 C 15,6 C 96 % 1016,0 hPa 0,0 l/m 0 min 0 min 27 W/m 3,2 km/h (1 Bft) 95,65 %
16.06.2020 06:56 17,3 C 15,6 C 15,6 C 96 % 1015,9 hPa 0,0 l/m 0 min 0 min 28 W/m 0,0 km/h (0 Bft) 97,87 %
16.06.2020 06:58 17,3 C 15,6 C 15,6 C 96 % 1016,0 hPa 0,0 l/m 0 min 0 min 30 W/m 3,2 km/h (1 Bft) 97,87 %
16.06.2020 07:00 17,3 C 15,6 C 15,6 C 96 % 1015,9 hPa 0,0 l/m 0 min 0 min 31 W/m 3,2 km/h (1 Bft) 93,62 %
16.06.2020 07:02 17,3 C 15,6 C 15,6 C 96 % 1016,0 hPa 0,0 l/m 0 min 2 min 32 W/m 3,2 km/h (1 Bft) 93,75 %
16.06.2020 07:04 17,3 C 15,6 C 15,6 C 96 % 1016,0 hPa 0,0 l/m 0 min 0 min 32 W/m 3,2 km/h (1 Bft) 97,87 %
16.06.2020 07:06 17,3 C 15,6 C 15,6 C 96 % 1016,0 hPa 0,0 l/m 0 min 2 min 33 W/m 3,2 km/h (1 Bft) 97,87 %
16.06.2020 07:08 17,3 C 15,6 C 15,6 C 96 % 1016,0 hPa 0,0 l/m 0 min 0 min 34 W/m 0,0 km/h (0 Bft) 95,65 %
16.06.2020 07:10 17,3 C 16,1 C 15,6 C 97 % 1016,0 hPa 0,0 l/m 0 min 0 min 36 W/m 0,0 km/h (0 Bft) 91,49 %
16.06.2020 07:12 17,3 C 15,6 C 15,6 C 97 % 1016,0 hPa 0,0 l/m 0 min 0 min 37 W/m 3,2 km/h (1 Bft) 97,87 %
16.06.2020 07:14 17,3 C 16,1 C 15,6 C 97 % 1016,0 hPa 0,0 l/m 0 min 2 min 39 W/m 3,2 km/h (1 Bft) 95,74 %
16.06.2020 07:16 17,3 C 16,1 C 15,6 C 97 % 1016,1 hPa 0,0 l/m 0 min 0 min 40 W/m 0,0 km/h (0 Bft) 93,62 %
16.06.2020 07:18 17,2 C 16,1 C 15,6 C 96 % 1016,1 hPa 0,0 l/m 0 min 0 min 40 W/m 0,0 km/h (0 Bft) 95,74 %
16.06.2020 07:20 17,2 C 16,1 C 15,6 C 96 % 1016,1 hPa 0,0 l/m 0 min 0 min 40 W/m 3,2 km/h (1 Bft) 93,48 %
16.06.2020 07:22 17,2 C 16,1 C 15,6 C 97 % 1016,0 hPa 0,0 l/m 0 min 0 min 42 W/m 0,0 km/h (0 Bft) 95,74 %
16.06.2020 07:24 17,2 C 16,1 C 15,6 C 96 % 1016,1 hPa 0,0 l/m 0 min 0 min 42 W/m 3,2 km/h (1 Bft) 93,62 %
16.06.2020 07:26 17,2 C 16,1 C 15,6 C 96 % 1016,1 hPa 0,0 l/m 0 min 0 min 44 W/m 0,0 km/h (0 Bft) 91,49 %
16.06.2020 07:28 17,2 C 16,1 C 15,6 C 97 % 1016,1 hPa 0,0 l/m 0 min 0 min 44 W/m 3,2 km/h (1 Bft) 95,74 %
16.06.2020 07:32 17,2 C 16,1 C 15,6 C 97 % 1016,1 hPa 0,0 l/m 0 min 0 min 47 W/m 3,2 km/h (1 Bft) 97,73 %
16.06.2020 07:34 17,2 C 16,1 C 15,6 C 97 % 1016,1 hPa 0,0 l/m 0 min 0 min 49 W/m 3,2 km/h (1 Bft) 97,87 %
16.06.2020 07:36 17,2 C 16,1 C 15,6 C 97 % 1016,1 hPa 0,0 l/m 0 min 0 min 52 W/m 3,2 km/h (1 Bft) 97,87 %
16.06.2020 07:38 17,2 C 16,1 C 15,6 C 97 % 1016,1 hPa 0,0 l/m 0 min 0 min 55 W/m 3,2 km/h (1 Bft) 97,83 %
16.06.2020 07:40 17,2 C 16,1 C 16,1 C 97 % 1016,1 hPa 0,0 l/m 0 min 0 min 59 W/m 6,4 km/h (2 Bft) 97,87 %
16.06.2020 07:42 17,2 C 16,1 C 16,1 C 97 % 1016,1 hPa 0,0 l/m 0 min 0 min 63 W/m 0,0 km/h (0 Bft) 97,87 %
16.06.2020 07:44 17,2 C 16,1 C 16,1 C 97 % 1016,1 hPa 0,0 l/m 0 min 0 min 65 W/m 0,0 km/h (0 Bft) 97,87 %
16.06.2020 07:46 17,2 C 16,1 C 16,1 C 97 % 1016,2 hPa 0,0 l/m 0 min 0 min 69 W/m 3,2 km/h (1 Bft) 97,87 %
16.06.2020 07:48 17,2 C 16,7 C 16,1 C 97 % 1016,2 hPa 0,0 l/m 0 min 0 min 71 W/m 3,2 km/h (1 Bft) 96,00 %
16.06.2020 07:50 17,3 C 16,1 C 16,1 C 97 % 1016,2 hPa 0,0 l/m 0 min 0 min 74 W/m 6,4 km/h (2 Bft) 97,83 %
16.06.2020 07:52 17,3 C 16,7 C 16,1 C 97 % 1016,1 hPa 0,0 l/m 0 min 0 min 78 W/m 3,2 km/h (1 Bft) 97,87 %
16.06.2020 07:54 17,3 C 16,7 C 16,1 C 97 % 1016,2 hPa 0,0 l/m 0 min 0 min 82 W/m 0,0 km/h (0 Bft) 97,87 %
16.06.2020 07:56 17,3 C 16,7 C 16,1 C 97 % 1016,2 hPa 0,0 l/m 0 min 0 min 85 W/m 0,0 km/h (0 Bft) 97,87 %
16.06.2020 07:58 17,3 C 16,7 C 16,1 C 97 % 1016,2 hPa 0,0 l/m 0 min 0 min 89 W/m 0,0 km/h (0 Bft) 97,87 %
16.06.2020 08:00 17,3 C 16,7 C 16,7 C 97 % 1016,3 hPa 0,0 l/m 0 min 0 min 93 W/m 3,2 km/h (1 Bft) 100,00 %
16.06.2020 08:02 17,4 C 16,7 C 16,7 C 97 % 1016,3 hPa 0,0 l/m 0 min 2 min 96 W/m 0,0 km/h (0 Bft) 100,00 %
16.06.2020 08:04 17,4 C 16,7 C 16,7 C 97 % 1016,3 hPa 0,0 l/m 0 min 0 min 99 W/m 0,0 km/h (0 Bft) 100,00 %
16.06.2020 08:06 17,4 C 16,7 C 16,7 C 97 % 1016,3 hPa 0,0 l/m 0 min 2 min 102 W/m 3,2 km/h (1 Bft) 100,00 %
16.06.2020 08:08 17,4 C 16,7 C 16,7 C 97 % 1016,2 hPa 0,0 l/m 0 min 0 min 104 W/m 3,2 km/h (1 Bft) 100,00 %
16.06.2020 08:10 17,4 C 16,7 C 16,7 C 97 % 1016,2 hPa 0,0 l/m 0 min 0 min 106 W/m 0,0 km/h (0 Bft) 100,00 %
16.06.2020 08:12 17,5 C 16,7 C 16,7 C 97 % 1016,2 hPa 0,0 l/m 0 min 0 min 107 W/m 0,0 km/h (0 Bft) 100,00 %
16.06.2020 08:14 17,5 C 16,7 C 16,7 C 97 % 1016,2 hPa 0,0 l/m 0 min 0 min 110 W/m 0,0 km/h (0 Bft) 100,00 %
16.06.2020 08:16 17,5 C 16,7 C 16,7 C 97 % 1016,3 hPa 0,0 l/m 0 min 0 min 111 W/m 0,0 km/h (0 Bft) 100,00 %
16.06.2020 08:18 17,5 C 17,2 C 16,7 C 97 % 1016,3 hPa 0,0 l/m 0 min 0 min 110 W/m 0,0 km/h (0 Bft) 100,00 %
16.06.2020 08:20 17,5 C 17,2 C 16,7 C 97 % 1016,3 hPa 0,0 l/m 0 min 0 min 109 W/m 0,0 km/h (0 Bft) 100,00 %
16.06.2020 08:22 17,5 C 17,2 C 16,7 C 97 % 1016,3 hPa 0,0 l/m 0 min 0 min 109 W/m 0,0 km/h (0 Bft) 100,00 %
16.06.2020 08:24 17,5 C 17,2 C 16,7 C 97 % 1016,3 hPa 0,0 l/m 0 min 0 min 109 W/m 0,0 km/h (0 Bft) 100,00 %
16.06.2020 08:26 17,5 C 17,2 C 16,7 C 97 % 1016,3 hPa 0,0 l/m 0 min 0 min 111 W/m 0,0 km/h (0 Bft) 100,00 %
16.06.2020 08:28 17,5 C 17,2 C 16,7 C 97 % 1016,3 hPa 0,0 l/m 0 min 0 min 111 W/m 3,2 km/h (1 Bft) 100,00 %
16.06.2020 08:30 17,5 C 17,2 C 16,7 C 97 % 1016,3 hPa 0,0 l/m 0 min 0 min 111 W/m 3,2 km/h (1 Bft) 100,00 %
16.06.2020 08:32 17,4 C 17,2 C 16,7 C 97 % 1016,3 hPa 0,0 l/m 0 min 0 min 113 W/m 6,4 km/h (2 Bft) 100,00 %
16.06.2020 08:34 17,4 C 17,2 C 16,7 C 97 % 1016,3 hPa 0,0 l/m 0 min 0 min 114 W/m 3,2 km/h (1 Bft) 100,00 %
16.06.2020 08:36 17,4 C 17,2 C 16,7 C 97 % 1016,3 hPa 0,0 l/m 0 min 0 min 115 W/m 3,2 km/h (1 Bft) 100,00 %
16.06.2020 08:38 17,4 C 17,2 C 16,7 C 97 % 1016,3 hPa 0,0 l/m 0 min 0 min 118 W/m 6,4 km/h (2 Bft) 100,00 %
16.06.2020 08:40 17,4 C 17,2 C 16,7 C 97 % 1016,3 hPa 0,0 l/m 0 min 0 min 119 W/m 6,4 km/h (2 Bft) 100,00 %
16.06.2020 08:42 17,4 C 17,2 C 16,7 C 97 % 1016,3 hPa 0,0 l/m 0 min 0 min 121 W/m 3,2 km/h (1 Bft) 97,87 %
16.06.2020 08:44 17,4 C 17,2 C 16,7 C 97 % 1016,3 hPa 0,0 l/m 0 min 0 min 121 W/m 6,4 km/h (2 Bft) 100,00 %
16.06.2020 08:46 17,4 C 17,8 C 16,7 C 97 % 1016,3 hPa 0,0 l/m 0 min 0 min 123 W/m 3,2 km/h (1 Bft) 97,96 %
16.06.2020 08:48 17,4 C 17,8 C 16,7 C 97 % 1016,3 hPa 0,0 l/m 0 min 0 min 126 W/m 0,0 km/h (0 Bft) 97,87 %
16.06.2020 08:50 17,4 C 17,8 C 16,7 C 97 % 1016,3 hPa 0,0 l/m 0 min 0 min 129 W/m 0,0 km/h (0 Bft) 97,87 %
16.06.2020 08:52 17,3 C 17,8 C 16,7 C 97 % 1016,3 hPa 0,0 l/m 0 min 0 min 133 W/m 0,0 km/h (0 Bft) 97,87 %
16.06.2020 08:54 17,3 C 17,8 C 16,7 C 96 % 1016,3 hPa 0,0 l/m 0 min 0 min 136 W/m 0,0 km/h (0 Bft) 97,87 %
16.06.2020 08:56 17,4 C 17,8 C 16,7 C 96 % 1016,3 hPa 0,0 l/m 0 min 0 min 138 W/m 3,2 km/h (1 Bft) 97,87 %
16.06.2020 08:58 17,4 C 17,8 C 16,7 C 96 % 1016,4 hPa 0,0 l/m 0 min 0 min 139 W/m 6,4 km/h (2 Bft) 97,83 %
16.06.2020 09:00 17,4 C 17,8 C 16,7 C 96 % 1016,4 hPa 0,0 l/m 0 min 0 min 138 W/m 3,2 km/h (1 Bft) 97,22 %
16.06.2020 09:02 17,4 C 18,3 C 16,7 C 96 % 1016,4 hPa 0,0 l/m 0 min 0 min 137 W/m 0,0 km/h (0 Bft) 97,87 %
16.06.2020 09:04 17,4 C 18,3 C 16,7 C 96 % 1016,3 hPa 0,0 l/m 0 min 0 min 135 W/m 3,2 km/h (1 Bft) 97,87 %
16.06.2020 09:06 17,4 C 18,3 C 16,7 C 96 % 1016,3 hPa 0,0 l/m 0 min 0 min 136 W/m 3,2 km/h (1 Bft) 97,87 %
16.06.2020 09:08 17,4 C 18,3 C 16,7 C 96 % 1016,4 hPa 0,0 l/m 0 min 0 min 139 W/m 0,0 km/h (0 Bft) 97,87 %
16.06.2020 09:10 17,5 C 18,3 C 16,7 C 95 % 1016,4 hPa 0,0 l/m 0 min 0 min 142 W/m 3,2 km/h (1 Bft) 97,87 %
16.06.2020 09:12 17,5 C 18,3 C 16,7 C 95 % 1016,4 hPa 0,0 l/m 0 min 0 min 144 W/m 3,2 km/h (1 Bft) 100,00 %
16.06.2020 09:14 17,5 C 18,3 C 16,7 C 95 % 1016,4 hPa 0,0 l/m 0 min 0 min 147 W/m 6,4 km/h (2 Bft) 97,83 %
16.06.2020 09:16 17,5 C 18,3 C 16,7 C 95 % 1016,4 hPa 0,0 l/m 0 min 0 min 152 W/m 6,4 km/h (2 Bft) 95,74 %
16.06.2020 09:18 17,6 C 18,3 C 16,7 C 95 % 1016,4 hPa 0,0 l/m 0 min 0 min 156 W/m 3,2 km/h (1 Bft) 95,74 %
16.06.2020 09:20 17,6 C 18,3 C 16,7 C 95 % 1016,4 hPa 0,0 l/m 0 min 0 min 162 W/m 12,9 km/h (3 Bft) 97,87 %
16.06.2020 09:22 17,6 C 18,3 C 16,7 C 95 % 1016,4 hPa 0,0 l/m 0 min 0 min 169 W/m 3,2 km/h (1 Bft) 97,87 %
16.06.2020 09:24 17,6 C 18,3 C 16,7 C 95 % 1016,4 hPa 0,0 l/m 0 min 0 min 173 W/m 3,2 km/h (1 Bft) 97,87 %
16.06.2020 09:26 17,7 C 18,3 C 16,7 C 95 % 1016,4 hPa 0,0 l/m 0 min 0 min 177 W/m 3,2 km/h (1 Bft) 97,83 %
16.06.2020 09:28 17,7 C 18,3 C 17,2 C 94 % 1016,4 hPa 0,0 l/m 0 min 0 min 180 W/m 3,2 km/h (1 Bft) 95,74 %
16.06.2020 09:30 17,8 C 18,9 C 17,2 C 94 % 1016,4 hPa 0,0 l/m 0 min 0 min 182 W/m 3,2 km/h (1 Bft) 91,49 %
16.06.2020 09:32 17,8 C 18,9 C 17,2 C 94 % 1016,4 hPa 0,0 l/m 0 min 2 min 183 W/m 0,0 km/h (0 Bft) 93,62 %
16.06.2020 09:34 17,8 C 18,3 C 17,2 C 94 % 1016,4 hPa 0,0 l/m 0 min 0 min 184 W/m 3,2 km/h (1 Bft) 95,74 %
16.06.2020 09:36 17,8 C 18,3 C 17,2 C 94 % 1016,4 hPa 0,0 l/m 0 min 0 min 185 W/m 3,2 km/h (1 Bft) 93,48 %
16.06.2020 09:38 17,9 C 18,9 C 17,2 C 94 % 1016,4 hPa 0,0 l/m 0 min 0 min 185 W/m 0,0 km/h (0 Bft) 97,87 %
16.06.2020 09:40 17,9 C 18,9 C 17,2 C 94 % 1016,3 hPa 0,0 l/m 0 min 0 min 186 W/m 0,0 km/h (0 Bft) 97,87 %
16.06.2020 09:42 17,9 C 18,9 C 17,2 C 94 % 1016,4 hPa 0,0 l/m 0 min 0 min 188 W/m 0,0 km/h (0 Bft) 97,87 %
16.06.2020 09:44 18,0 C 18,9 C 17,2 C 93 % 1016,4 hPa 0,0 l/m 0 min 2 min 190 W/m 0,0 km/h (0 Bft) 95,74 %
16.06.2020 09:46 18,1 C 18,9 C 17,2 C 93 % 1016,4 hPa 0,0 l/m 0 min 0 min 194 W/m 0,0 km/h (0 Bft) 95,74 %
16.06.2020 09:48 18,1 C 18,9 C 17,2 C 93 % 1016,3 hPa 0,0 l/m 0 min 0 min 200 W/m 0,0 km/h (0 Bft) 93,48 %
16.06.2020 09:50 18,1 C 19,4 C 17,8 C 93 % 1016,4 hPa 0,0 l/m 0 min 0 min 209 W/m 0,0 km/h (0 Bft) 97,87 %
16.06.2020 09:52 18,2 C 19,4 C 17,8 C 93 % 1016,4 hPa 0,0 l/m 0 min 0 min 218 W/m 0,0 km/h (0 Bft) 97,87 %
16.06.2020 09:54 18,2 C 19,4 C 17,8 C 93 % 1016,3 hPa 0,0 l/m 0 min 2 min 222 W/m 0,0 km/h (0 Bft) 97,87 %
16.06.2020 09:56 18,2 C 18,9 C 17,8 C 93 % 1016,3 hPa 0,0 l/m 0 min 0 min 225 W/m 0,0 km/h (0 Bft) 95,74 %
16.06.2020 09:58 18,3 C 19,4 C 17,8 C 93 % 1016,3 hPa 0,0 l/m 0 min 0 min 229 W/m 0,0 km/h (0 Bft) 95,74 %
16.06.2020 10:00 18,3 C 19,4 C 17,8 C 93 % 1016,4 hPa 0,0 l/m 0 min 0 min 232 W/m 0,0 km/h (0 Bft) 97,83 %
16.06.2020 10:02 18,3 C 19,4 C 17,8 C 93 % 1016,3 hPa 0,0 l/m 0 min 0 min 238 W/m 0,0 km/h (0 Bft) 95,74 %
16.06.2020 10:04 18,4 C 20,0 C 17,8 C 93 % 1016,3 hPa 0,0 l/m 0 min 0 min 244 W/m 0,0 km/h (0 Bft) 94,64 %
16.06.2020 10:06 18,4 C 20,0 C 17,8 C 93 % 1016,3 hPa 0,0 l/m 0 min 0 min 248 W/m 0,0 km/h (0 Bft) 95,74 %
16.06.2020 10:08 18,4 C 20,0 C 18,3 C 92 % 1016,3 hPa 0,0 l/m 0 min 0 min 251 W/m 0,0 km/h (0 Bft) 95,65 %
16.06.2020 10:10 18,5 C 20,0 C 18,3 C 92 % 1016,3 hPa 0,0 l/m 0 min 0 min 251 W/m 0,0 km/h (0 Bft) 95,74 %
16.06.2020 10:12 18,6 C 20,0 C 18,3 C 92 % 1016,2 hPa 0,0 l/m 0 min 0 min 251 W/m 0,0 km/h (0 Bft) 97,87 %
16.06.2020 10:14 18,6 C 20,6 C 18,3 C 92 % 1016,3 hPa 0,0 l/m 0 min 2 min 252 W/m 0,0 km/h (0 Bft) 97,30 %
16.06.2020 10:16 18,6 C 20,0 C 18,3 C 92 % 1016,3 hPa 0,0 l/m 0 min 0 min 259 W/m 0,0 km/h (0 Bft) 97,87 %
16.06.2020 10:18 18,7 C 20,6 C 18,3 C 92 % 1016,3 hPa 0,0 l/m 0 min 2 min 265 W/m 0,0 km/h (0 Bft) 93,62 %
16.06.2020 10:20 18,8 C 20,6 C 18,3 C 92 % 1016,3 hPa 0,0 l/m 0 min 0 min 274 W/m 0,0 km/h (0 Bft) 97,87 %
16.06.2020 10:22 18,8 C 21,1 C 18,9 C 92 % 1016,2 hPa 0,0 l/m 0 min 0 min 281 W/m 0,0 km/h (0 Bft) 95,74 %
16.06.2020 10:24 18,9 C 20,6 C 18,9 C 92 % 1016,2 hPa 0,0 l/m 0 min 2 min 285 W/m 0,0 km/h (0 Bft) 97,87 %
16.06.2020 10:26 18,9 C 20,6 C 18,9 C 92 % 1016,2 hPa 0,0 l/m 0 min 0 min 279 W/m 0,0 km/h (0 Bft) 97,87 %
16.06.2020 10:28 18,9 C 20,6 C 18,9 C 92 % 1016,2 hPa 0,0 l/m 0 min 0 min 280 W/m 0,0 km/h (0 Bft) 97,87 %
16.06.2020 10:30 19,0 C 20,0 C 18,3 C 92 % 1016,3 hPa 0,0 l/m 0 min 0 min 284 W/m 0,0 km/h (0 Bft) 97,87 %
16.06.2020 10:32 19,1 C 20,6 C 18,3 C 92 % 1016,3 hPa 0,0 l/m 0 min 0 min 289 W/m 0,0 km/h (0 Bft) 97,87 %
16.06.2020 10:34 19,1 C 21,1 C 18,9 C 92 % 1016,2 hPa 0,0 l/m 0 min 0 min 299 W/m 0,0 km/h (0 Bft) 97,83 %
16.06.2020 10:36 19,2 C 21,1 C 18,9 C 92 % 1016,3 hPa 0,0 l/m 0 min 0 min 308 W/m 0,0 km/h (0 Bft) 98,00 %
16.06.2020 10:38 19,2 C 21,1 C 18,9 C 92 % 1016,3 hPa 0,0 l/m 0 min 0 min 313 W/m 0,0 km/h (0 Bft) 95,74 %
16.06.2020 10:40 19,3 C 21,1 C 18,9 C 92 % 1016,2 hPa 0,0 l/m 0 min 2 min 314 W/m 0,0 km/h (0 Bft) 97,87 %
16.06.2020 10:42 19,3 C 21,1 C 18,9 C 92 % 1016,3 hPa 0,0 l/m 0 min 0 min 310 W/m 0,0 km/h (0 Bft) 96,00 %
16.06.2020 10:44 19,4 C 21,1 C 19,4 C 92 % 1016,3 hPa 0,0 l/m 0 min 0 min 306 W/m 0,0 km/h (0 Bft) 97,83 %
16.06.2020 10:46 19,5 C 21,1 C 19,4 C 92 % 1016,3 hPa 0,0 l/m 0 min 0 min 299 W/m 0,0 km/h (0 Bft) 97,87 %
16.06.2020 10:48 19,6 C 21,1 C 18,9 C 92 % 1016,3 hPa 0,0 l/m 0 min 0 min 290 W/m 3,2 km/h (1 Bft) 98,00 %
16.06.2020 10:50 19,6 C 21,1 C 18,9 C 92 % 1016,3 hPa 0,0 l/m 0 min 0 min 281 W/m 3,2 km/h (1 Bft) 97,87 %
16.06.2020 10:52 19,6 C 21,1 C 18,9 C 91 % 1016,4 hPa 0,0 l/m 0 min 0 min 270 W/m 0,0 km/h (0 Bft) 97,87 %
16.06.2020 10:54 19,7 C 21,1 C 18,9 C 91 % 1016,3 hPa 0,0 l/m 0 min 0 min 259 W/m 0,0 km/h (0 Bft) 97,87 %
16.06.2020 10:56 19,7 C 20,6 C 18,9 C 91 % 1016,3 hPa 0,0 l/m 0 min 0 min 249 W/m 0,0 km/h (0 Bft) 97,83 %
16.06.2020 10:58 19,7 C 20,6 C 18,9 C 91 % 1016,3 hPa 0,0 l/m 0 min 0 min 237 W/m 0,0 km/h (0 Bft) 97,87 %
16.06.2020 11:00 19,8 C 20,6 C 18,9 C 91 % 1016,3 hPa 0,0 l/m 0 min 0 min 226 W/m 0,0 km/h (0 Bft) 97,87 %
16.06.2020 11:02 19,8 C 20,6 C 18,9 C 91 % 1016,3 hPa 0,0 l/m 0 min 2 min 212 W/m 0,0 km/h (0 Bft) 100,00 %
16.06.2020 11:04 19,8 C 20,0 C 18,9 C 91 % 1016,3 hPa 0,0 l/m 0 min 0 min 198 W/m 0,0 km/h (0 Bft) 100,00 %
16.06.2020 11:06 19,8 C 20,0 C 18,9 C 91 % 1016,4 hPa 0,0 l/m 0 min 2 min 187 W/m 0,0 km/h (0 Bft) 100,00 %
16.06.2020 11:08 19,9 C 20,0 C 18,3 C 91 % 1016,4 hPa 0,0 l/m 0 min 0 min 181 W/m 0,0 km/h (0 Bft) 97,87 %
16.06.2020 11:10 19,9 C 20,0 C 18,3 C 90 % 1016,4 hPa 0,0 l/m 0 min 0 min 186 W/m 0,0 km/h (0 Bft) 97,87 %
16.06.2020 11:12 19,9 C 20,0 C 18,3 C 90 % 1016,4 hPa 0,0 l/m 0 min 0 min 191 W/m 0,0 km/h (0 Bft) 100,00 %
16.06.2020 11:14 19,9 C 20,0 C 18,3 C 90 % 1016,3 hPa 0,0 l/m 0 min 0 min 191 W/m 0,0 km/h (0 Bft) 100,00 %
16.06.2020 11:16 19,9 C 20,0 C 18,3 C 90 % 1016,3 hPa 0,0 l/m 0 min 0 min 186 W/m 0,0 km/h (0 Bft) 100,00 %
16.06.2020 11:18 19,9 C 20,0 C 18,3 C 90 % 1016,3 hPa 0,0 l/m 0 min 0 min 178 W/m 0,0 km/h (0 Bft) 100,00 %
16.06.2020 11:20 19,9 C 19,4 C 18,3 C 90 % 1016,3 hPa 0,0 l/m 0 min 0 min 173 W/m 0,0 km/h (0 Bft) 100,00 %
16.06.2020 11:22 19,9 C 19,4 C 18,3 C 89 % 1016,3 hPa 0,0 l/m 0 min 2 min 173 W/m 0,0 km/h (0 Bft) 100,00 %
16.06.2020 11:24 19,9 C 19,4 C 18,3 C 89 % 1016,4 hPa 0,0 l/m 0 min 2 min 175 W/m 0,0 km/h (0 Bft) 100,00 %
16.06.2020 11:26 19,8 C 19,4 C 18,3 C 89 % 1016,4 hPa 0,0 l/m 0 min 2 min 180 W/m 0,0 km/h (0 Bft) 95,74 %
16.06.2020 11:28 19,8 C 19,4 C 17,8 C 89 % 1016,4 hPa 0,0 l/m 0 min 2 min 186 W/m 0,0 km/h (0 Bft) 100,00 %
16.06.2020 11:30 19,8 C 19,4 C 17,8 C 88 % 1016,3 hPa 0,0 l/m 0 min 0 min 194 W/m 0,0 km/h (0 Bft) 100,00 %
16.06.2020 11:32 19,8 C 18,9 C 17,8 C 88 % 1016,3 hPa 0,0 l/m 0 min 0 min 203 W/m 0,0 km/h (0 Bft) 100,00 %
16.06.2020 11:34 19,8 C 18,9 C 17,8 C 88 % 1016,3 hPa 0,0 l/m 0 min 0 min 208 W/m 0,0 km/h (0 Bft) 100,00 %
16.06.2020 11:36 19,8 C 18,9 C 17,8 C 88 % 1016,3 hPa 0,0 l/m 0 min 2 min 210 W/m 0,0 km/h (0 Bft) 100,00 %
16.06.2020 11:38 19,8 C 18,9 C 17,8 C 88 % 1016,3 hPa 0,0 l/m 0 min 2 min 211 W/m 0,0 km/h (0 Bft) 100,00 %
16.06.2020 11:40 19,8 C 19,4 C 17,8 C 88 % 1016,3 hPa 0,0 l/m 0 min 2 min 211 W/m 0,0 km/h (0 Bft) 100,00 %
16.06.2020 11:42 19,8 C 18,9 C 17,8 C 88 % 1016,3 hPa 0,0 l/m 0 min 2 min 209 W/m 0,0 km/h (0 Bft) 97,87 %
16.06.2020 11:44 19,8 C 19,4 C 18,3 C 88 % 1016,3 hPa 0,0 l/m 0 min 0 min 213 W/m 0,0 km/h (0 Bft) 97,83 %
16.06.2020 11:46 19,8 C 19,4 C 18,3 C 88 % 1016,3 hPa 0,0 l/m 0 min 0 min 219 W/m 0,0 km/h (0 Bft) 100,00 %
16.06.2020 11:48 19,8 C 19,4 C 18,3 C 89 % 1016,2 hPa 0,0 l/m 0 min 2 min 232 W/m 0,0 km/h (0 Bft) 100,00 %
16.06.2020 11:50 19,8 C 19,4 C 18,3 C 89 % 1016,2 hPa 0,0 l/m 0 min 0 min 245 W/m 0,0 km/h (0 Bft) 100,00 %
16.06.2020 11:52 19,8 C 20,0 C 18,3 C 89 % 1016,2 hPa 0,0 l/m 0 min 0 min 256 W/m 0,0 km/h (0 Bft) 95,74 %
16.06.2020 11:54 19,8 C 20,6 C 18,3 C 89 % 1016,2 hPa 0,0 l/m 0 min 2 min 266 W/m 0,0 km/h (0 Bft) 93,62 %
16.06.2020 11:56 19,8 C 20,6 C 18,3 C 89 % 1016,2 hPa 0,0 l/m 0 min 2 min 273 W/m 0,0 km/h (0 Bft) 95,65 %
16.06.2020 11:58 19,9 C 20,6 C 18,3 C 90 % 1016,2 hPa 0,0 l/m 0 min 2 min 279 W/m 0,0 km/h (0 Bft) 97,87 %
16.06.2020 12:00 19,9 C 20,0 C 18,3 C 90 % 1016,2 hPa 0,0 l/m 0 min 2 min 283 W/m 0,0 km/h (0 Bft) 95,74 %
16.06.2020 12:02 19,9 C 20,6 C 18,9 C 90 % 1016,1 hPa 0,0 l/m 0 min 0 min 291 W/m 0,0 km/h (0 Bft) 93,62 %
16.06.2020 12:04 20,0 C 20,6 C 18,9 C 90 % 1016,1 hPa 0,0 l/m 0 min 0 min 303 W/m 0,0 km/h (0 Bft) 93,62 %
16.06.2020 12:08 20,1 C 21,1 C 18,9 C 91 % 1016,2 hPa 0,0 l/m 0 min 0 min 319 W/m 0,0 km/h (0 Bft) 94,62 %
16.06.2020 12:10 20,1 C 21,1 C 18,9 C 91 % 1016,1 hPa 0,0 l/m 0 min 0 min 330 W/m 0,0 km/h (0 Bft) 95,74 %
16.06.2020 12:12 20,2 C 21,7 C 18,9 C 91 % 1016,1 hPa 0,0 l/m 0 min 0 min 326 W/m 0,0 km/h (0 Bft) 97,87 %
16.06.2020 12:14 20,2 C 21,7 C 18,9 C 90 % 1016,1 hPa 0,0 l/m 0 min 0 min 309 W/m 0,0 km/h (0 Bft) 95,74 %
16.06.2020 12:16 20,2 C 21,1 C 19,4 C 90 % 1016,1 hPa 0,0 l/m 0 min 0 min 300 W/m 0,0 km/h (0 Bft) 95,74 %
16.06.2020 12:18 20,2 C 21,7 C 19,4 C 90 % 1016,1 hPa 0,0 l/m 0 min 0 min 310 W/m 0,0 km/h (0 Bft) 93,62 %
16.06.2020 12:20 20,2 C 21,7 C 19,4 C 90 % 1016,1 hPa 0,0 l/m 0 min 0 min 310 W/m 0,0 km/h (0 Bft) 95,65 %
16.06.2020 12:22 20,3 C 22,2 C 19,4 C 90 % 1016,1 hPa 0,0 l/m 0 min 0 min 307 W/m 0,0 km/h (0 Bft) 93,62 %
16.06.2020 12:24 20,3 C 22,2 C 19,4 C 90 % 1016,1 hPa 0,0 l/m 0 min 0 min 307 W/m 0,0 km/h (0 Bft) 95,74 %
16.06.2020 12:26 20,4 C 22,2 C 19,4 C 90 % 1016,1 hPa 0,0 l/m 0 min 0 min 313 W/m 0,0 km/h (0 Bft) 93,62 %
16.06.2020 12:28 20,4 C 22,2 C 19,4 C 90 % 1016,0 hPa 0,0 l/m 0 min 0 min 318 W/m 3,2 km/h (1 Bft) 95,74 %
16.06.2020 12:30 20,4 C 22,2 C 19,4 C 90 % 1016,0 hPa 0,0 l/m 0 min 0 min 326 W/m 3,2 km/h (1 Bft) 95,65 %
16.06.2020 12:32 20,4 C 22,2 C 19,4 C 90 % 1016,1 hPa 0,0 l/m 0 min 0 min 330 W/m 0,0 km/h (0 Bft) 95,74 %
16.06.2020 12:34 20,4 C 22,2 C 19,4 C 89 % 1016,0 hPa 0,0 l/m 0 min 0 min 332 W/m 0,0 km/h (0 Bft) 95,74 %
16.06.2020 12:36 20,4 C 21,7 C 19,4 C 89 % 1016,0 hPa 0,0 l/m 0 min 0 min 333 W/m 0,0 km/h (0 Bft) 95,74 %
16.06.2020 12:38 20,5 C 22,2 C 19,4 C 89 % 1015,9 hPa 0,0 l/m 0 min 0 min 333 W/m 0,0 km/h (0 Bft) 95,74 %
16.06.2020 12:40 20,6 C 22,2 C 19,4 C 89 % 1015,9 hPa 0,0 l/m 0 min 0 min 325 W/m 0,0 km/h (0 Bft) 95,74 %
16.06.2020 12:42 20,6 C 22,2 C 19,4 C 89 % 1015,9 hPa 0,0 l/m 0 min 0 min 311 W/m 0,0 km/h (0 Bft) 95,65 %
16.06.2020 12:44 20,6 C 22,2 C 19,4 C 89 % 1015,9 hPa 0,0 l/m 0 min 0 min 307 W/m 0,0 km/h (0 Bft) 100,00 %
16.06.2020 12:46 20,7 C 22,2 C 20,0 C 89 % 1015,9 hPa 0,0 l/m 0 min 0 min 305 W/m 0,0 km/h (0 Bft) 100,00 %
16.06.2020 12:48 20,7 C 22,2 C 20,0 C 89 % 1015,9 hPa 0,0 l/m 0 min 0 min 294 W/m 0,0 km/h (0 Bft) 97,87 %
16.06.2020 12:50 20,8 C 22,2 C 19,4 C 89 % 1015,9 hPa 0,0 l/m 0 min 0 min 308 W/m 0,0 km/h (0 Bft) 97,87 %
16.06.2020 12:52 20,8 C 22,8 C 20,0 C 89 % 1015,9 hPa 0,0 l/m 0 min 2 min 314 W/m 0,0 km/h (0 Bft) 95,74 %
16.06.2020 12:54 20,9 C 22,2 C 20,0 C 89 % 1015,8 hPa 0,0 l/m 0 min 0 min 301 W/m 0,0 km/h (0 Bft) 100,00 %
16.06.2020 12:56 20,9 C 22,2 C 20,0 C 89 % 1015,8 hPa 0,0 l/m 0 min 0 min 306 W/m 0,0 km/h (0 Bft) 97,87 %
16.06.2020 12:58 20,9 C 22,2 C 20,0 C 89 % 1015,8 hPa 0,0 l/m 0 min 0 min 308 W/m 0,0 km/h (0 Bft) 100,00 %
16.06.2020 13:00 20,9 C 22,2 C 20,0 C 89 % 1015,8 hPa 0,0 l/m 0 min 0 min 302 W/m 0,0 km/h (0 Bft) 97,87 %
16.06.2020 13:02 21,0 C 22,2 C 20,0 C 89 % 1015,7 hPa 0,0 l/m 0 min 2 min 296 W/m 0,0 km/h (0 Bft) 100,00 %
16.06.2020 13:04 21,0 C 22,2 C 20,0 C 89 % 1015,7 hPa 0,0 l/m 0 min 2 min 295 W/m 0,0 km/h (0 Bft) 100,00 %
16.06.2020 13:06 21,1 C 22,2 C 20,0 C 88 % 1015,7 hPa 0,0 l/m 0 min 0 min 299 W/m 0,0 km/h (0 Bft) 100,00 %
16.06.2020 13:08 21,1 C 21,7 C 20,0 C 88 % 1015,7 hPa 0,0 l/m 0 min 0 min 304 W/m 0,0 km/h (0 Bft) 100,00 %
16.06.2020 13:10 21,1 C 21,7 C 20,0 C 88 % 1015,7 hPa 0,0 l/m 0 min 0 min 312 W/m 0,0 km/h (0 Bft) 95,74 %
16.06.2020 13:12 21,1 C 21,7 C 20,0 C 87 % 1015,6 hPa 0,0 l/m 0 min 2 min 315 W/m 0,0 km/h (0 Bft) 97,87 %
16.06.2020 13:14 21,1 C 21,7 C 20,0 C 87 % 1015,6 hPa 0,0 l/m 0 min 2 min 316 W/m 0,0 km/h (0 Bft) 100,00 %
16.06.2020 13:16 21,1 C 21,7 C 20,0 C 87 % 1015,6 hPa 0,0 l/m 0 min 2 min 312 W/m 0,0 km/h (0 Bft) 100,00 %
16.06.2020 13:18 21,1 C 21,7 C 20,0 C 87 % 1015,6 hPa 0,0 l/m 0 min 2 min 304 W/m 0,0 km/h (0 Bft) 97,87 %
16.06.2020 13:20 21,2 C 21,7 C 20,0 C 87 % 1015,6 hPa 0,0 l/m 0 min 0 min 298 W/m 0,0 km/h (0 Bft) 97,87 %
16.06.2020 13:22 21,2 C 21,7 C 20,0 C 88 % 1015,6 hPa 0,0 l/m 0 min 0 min 291 W/m 0,0 km/h (0 Bft) 97,87 %
16.06.2020 13:24 21,2 C 21,7 C 20,0 C 88 % 1015,7 hPa 0,0 l/m 0 min 0 min 291 W/m 0,0 km/h (0 Bft) 95,74 %
16.06.2020 13:26 21,2 C 21,7 C 20,0 C 88 % 1015,6 hPa 0,0 l/m 0 min 0 min 292 W/m 0,0 km/h (0 Bft) 97,83 %
16.06.2020 13:28 21,3 C 22,2 C 20,0 C 88 % 1015,6 hPa 0,0 l/m 0 min 0 min 298 W/m 0,0 km/h (0 Bft) 97,87 %
16.06.2020 13:30 21,3 C 22,2 C 20,0 C 88 % 1015,6 hPa 0,0 l/m 0 min 0 min 306 W/m 0,0 km/h (0 Bft) 97,87 %
16.06.2020 13:32 21,3 C 22,2 C 20,0 C 88 % 1015,6 hPa 0,0 l/m 0 min 0 min 308 W/m 0,0 km/h (0 Bft) 97,87 %
16.06.2020 13:34 21,3 C 22,2 C 20,0 C 88 % 1015,6 hPa 0,0 l/m 0 min 0 min 298 W/m 0,0 km/h (0 Bft) 97,87 %
16.06.2020 13:36 21,3 C 22,2 C 20,0 C 88 % 1015,6 hPa 0,0 l/m 0 min 2 min 291 W/m 0,0 km/h (0 Bft) 97,87 %
16.06.2020 13:38 21,3 C 21,7 C 20,0 C 88 % 1015,6 hPa 0,0 l/m 0 min 0 min 288 W/m 0,0 km/h (0 Bft) 97,83 %
16.06.2020 13:40 21,4 C 22,2 C 20,0 C 88 % 1015,6 hPa 0,0 l/m 0 min 0 min 287 W/m 0,0 km/h (0 Bft) 97,87 %
16.06.2020 13:42 21,4 C 21,7 C 20,0 C 87 % 1015,6 hPa 0,0 l/m 0 min 0 min 287 W/m 0,0 km/h (0 Bft) 97,87 %
16.06.2020 13:44 21,4 C 21,7 C 20,0 C 87 % 1015,6 hPa 0,0 l/m 0 min 0 min 294 W/m 0,0 km/h (0 Bft) 97,87 %
16.06.2020 13:46 21,4 C 22,2 C 20,0 C 87 % 1015,6 hPa 0,0 l/m 0 min 0 min 299 W/m 0,0 km/h (0 Bft) 95,74 %
16.06.2020 13:48 21,4 C 22,2 C 20,0 C 87 % 1015,6 hPa 0,0 l/m 0 min 0 min 308 W/m 0,0 km/h (0 Bft) 97,87 %
16.06.2020 13:50 21,4 C 22,2 C 20,0 C 87 % 1015,6 hPa 0,0 l/m 0 min 0 min 312 W/m 0,0 km/h (0 Bft) 93,48 %
16.06.2020 13:52 21,4 C 22,8 C 20,0 C 87 % 1015,6 hPa 0,0 l/m 0 min 0 min 305 W/m 0,0 km/h (0 Bft) 97,87 %
16.06.2020 13:54 21,4 C 22,2 C 20,0 C 86 % 1015,5 hPa 0,0 l/m 0 min 0 min 291 W/m 0,0 km/h (0 Bft) 97,87 %
16.06.2020 13:56 21,4 C 22,8 C 20,0 C 86 % 1015,6 hPa 0,0 l/m 0 min 0 min 281 W/m 0,0 km/h (0 Bft) 97,87 %
16.06.2020 13:58 21,5 C 22,8 C 20,0 C 87 % 1015,5 hPa 0,0 l/m 0 min 0 min 279 W/m 0,0 km/h (0 Bft) 97,87 %
16.06.2020 14:00 21,5 C 22,8 C 20,0 C 87 % 1015,5 hPa 0,0 l/m 0 min 0 min 275 W/m 0,0 km/h (0 Bft) 97,87 %
16.06.2020 14:02 21,5 C 22,8 C 20,0 C 86 % 1015,5 hPa 0,0 l/m 0 min 0 min 275 W/m 0,0 km/h (0 Bft) 95,74 %
16.06.2020 14:04 21,6 C 22,8 C 20,0 C 86 % 1015,5 hPa 0,0 l/m 0 min 0 min 287 W/m 0,0 km/h (0 Bft) 97,87 %
16.06.2020 14:06 21,6 C 22,8 C 20,0 C 86 % 1015,5 hPa 0,0 l/m 0 min 0 min 298 W/m 0,0 km/h (0 Bft) 95,74 %
16.06.2020 14:08 21,6 C 22,8 C 20,0 C 86 % 1015,5 hPa 0,0 l/m 0 min 0 min 289 W/m 0,0 km/h (0 Bft) 97,87 %
16.06.2020 14:10 21,6 C 22,8 C 20,0 C 86 % 1015,6 hPa 0,0 l/m 0 min 0 min 217 W/m 0,0 km/h (0 Bft) 97,87 %
16.06.2020 14:12 21,6 C 22,8 C 20,0 C 86 % 1015,6 hPa 0,0 l/m 0 min 0 min 283 W/m 0,0 km/h (0 Bft) 97,83 %
16.06.2020 14:14 21,6 C 22,8 C 20,0 C 85 % 1015,6 hPa 0,0 l/m 0 min 0 min 305 W/m 0,0 km/h (0 Bft) 100,00 %
16.06.2020 14:16 21,6 C 23,3 C 20,0 C 85 % 1015,5 hPa 0,0 l/m 0 min 0 min 327 W/m 0,0 km/h (0 Bft) 98,04 %
16.06.2020 14:18 21,6 C 23,3 C 20,0 C 85 % 1015,6 hPa 0,0 l/m 0 min 0 min 340 W/m 0,0 km/h (0 Bft) 100,00 %
16.06.2020 14:20 21,6 C 23,3 C 20,0 C 85 % 1015,5 hPa 0,0 l/m 0 min 2 min 353 W/m 6,4 km/h (2 Bft) 100,00 %
16.06.2020 14:22 21,6 C 23,3 C 20,0 C 85 % 1015,5 hPa 0,0 l/m 0 min 0 min 362 W/m 6,4 km/h (2 Bft) 100,00 %
16.06.2020 14:24 21,7 C 23,3 C 20,0 C 84 % 1015,5 hPa 0,0 l/m 0 min 0 min 369 W/m 3,2 km/h (1 Bft) 100,00 %
16.06.2020 14:26 21,7 C 23,9 C 20,0 C 84 % 1015,5 hPa 0,0 l/m 0 min 0 min 376 W/m 0,0 km/h (0 Bft) 100,00 %
16.06.2020 14:28 21,7 C 23,9 C 20,6 C 84 % 1015,4 hPa 0,0 l/m 0 min 0 min 386 W/m 0,0 km/h (0 Bft) 100,00 %
16.06.2020 14:30 21,7 C 23,9 C 20,6 C 84 % 1015,4 hPa 0,0 l/m 0 min 0 min 385 W/m 0,0 km/h (0 Bft) 97,87 %
16.06.2020 14:32 21,8 C 23,3 C 20,6 C 83 % 1015,4 hPa 0,0 l/m 0 min 0 min 368 W/m 0,0 km/h (0 Bft) 97,87 %
16.06.2020 14:34 21,8 C 23,3 C 20,6 C 82 % 1015,4 hPa 0,0 l/m 0 min 0 min 357 W/m 0,0 km/h (0 Bft) 95,92 %
16.06.2020 14:36 21,8 C 23,3 C 20,6 C 82 % 1015,4 hPa 0,0 l/m 0 min 0 min 358 W/m 0,0 km/h (0 Bft) 97,87 %
16.06.2020 14:38 21,8 C 23,3 C 20,6 C 82 % 1015,5 hPa 0,0 l/m 0 min 0 min 368 W/m 0,0 km/h (0 Bft) 97,83 %
16.06.2020 14:40 21,8 C 23,9 C 20,6 C 82 % 1015,4 hPa 0,0 l/m 0 min 2 min 382 W/m 0,0 km/h (0 Bft) 95,74 %
16.06.2020 14:42 21,9 C 23,9 C 20,6 C 82 % 1015,4 hPa 0,0 l/m 0 min 0 min 395 W/m 0,0 km/h (0 Bft) 97,87 %
16.06.2020 14:44 21,9 C 23,9 C 20,6 C 82 % 1015,4 hPa 0,0 l/m 0 min 0 min 409 W/m 0,0 km/h (0 Bft) 97,87 %
16.06.2020 14:46 21,9 C 23,9 C 20,6 C 82 % 1015,4 hPa 0,0 l/m 2 min 0 min 445 W/m 0,0 km/h (0 Bft) 100,00 %
16.06.2020 14:48 22,0 C 23,9 C 20,6 C 82 % 1015,4 hPa 0,0 l/m 2 min 2 min 476 W/m 0,0 km/h (0 Bft) 95,74 %
16.06.2020 14:50 22,1 C 25,0 C 20,6 C 82 % 1015,3 hPa 0,0 l/m 2 min 0 min 510 W/m 0,0 km/h (0 Bft) 95,65 %
16.06.2020 14:52 22,1 C 25,0 C 21,1 C 82 % 1015,3 hPa 0,0 l/m 2 min 0 min 511 W/m 0,0 km/h (0 Bft) 95,74 %
16.06.2020 14:54 22,2 C 23,9 C 21,1 C 82 % 1015,3 hPa 0,0 l/m 2 min 0 min 485 W/m 6,4 km/h (2 Bft) 95,74 %
16.06.2020 14:56 22,2 C 24,4 C 21,1 C 82 % 1015,4 hPa 0,0 l/m 2 min 0 min 458 W/m 0,0 km/h (0 Bft) 95,74 %
16.06.2020 14:58 22,3 C 24,4 C 21,1 C 83 % 1015,3 hPa 0,0 l/m 2 min 0 min 455 W/m 0,0 km/h (0 Bft) 93,62 %
16.06.2020 15:00 22,3 C 23,9 C 21,1 C 82 % 1015,3 hPa 0,0 l/m 2 min 2 min 448 W/m 6,4 km/h (2 Bft) 95,74 %
16.06.2020 15:02 22,4 C 23,9 C 21,1 C 82 % 1015,3 hPa 0,0 l/m 0 min 0 min 427 W/m 3,2 km/h (1 Bft) 95,65 %
16.06.2020 15:04 22,4 C 23,9 C 21,1 C 80 % 1015,3 hPa 0,0 l/m 0 min 0 min 395 W/m 6,4 km/h (2 Bft) 95,74 %
16.06.2020 15:06 22,4 C 23,9 C 21,1 C 81 % 1015,3 hPa 0,0 l/m 0 min 0 min 374 W/m 3,2 km/h (1 Bft) 95,74 %
16.06.2020 15:08 22,4 C 23,9 C 20,6 C 81 % 1015,3 hPa 0,0 l/m 0 min 0 min 335 W/m 3,2 km/h (1 Bft) 95,74 %
16.06.2020 15:10 22,4 C 23,3 C 20,6 C 80 % 1015,3 hPa 0,0 l/m 0 min 0 min 313 W/m 6,4 km/h (2 Bft) 95,74 %
16.06.2020 15:12 22,5 C 23,3 C 20,6 C 79 % 1015,3 hPa 0,0 l/m 0 min 0 min 294 W/m 6,4 km/h (2 Bft) 97,87 %
16.06.2020 15:14 22,5 C 23,3 C 20,6 C 78 % 1015,3 hPa 0,0 l/m 0 min 0 min 280 W/m 3,2 km/h (1 Bft) 97,83 %
16.06.2020 15:16 22,5 C 23,3 C 20,6 C 78 % 1015,2 hPa 0,0 l/m 0 min 0 min 270 W/m 0,0 km/h (0 Bft) 95,74 %
16.06.2020 15:18 22,5 C 23,3 C 20,6 C 79 % 1015,2 hPa 0,0 l/m 0 min 0 min 260 W/m 0,0 km/h (0 Bft) 95,74 %
16.06.2020 15:20 22,5 C 22,8 C 20,6 C 79 % 1015,2 hPa 0,0 l/m 0 min 0 min 250 W/m 3,2 km/h (1 Bft) 95,74 %
16.06.2020 15:22 22,5 C 22,8 C 20,6 C 78 % 1015,2 hPa 0,0 l/m 0 min 0 min 241 W/m 6,4 km/h (2 Bft) 95,74 %
16.06.2020 15:24 22,4 C 22,8 C 20,0 C 77 % 1015,2 hPa 0,0 l/m 0 min 0 min 238 W/m 3,2 km/h (1 Bft) 95,74 %
16.06.2020 15:26 22,4 C 22,8 C 20,0 C 77 % 1015,3 hPa 0,0 l/m 0 min 0 min 247 W/m 9,7 km/h (2 Bft) 97,83 %
16.06.2020 15:28 22,4 C 22,2 C 20,0 C 76 % 1015,2 hPa 0,0 l/m 0 min 0 min 255 W/m 6,4 km/h (2 Bft) 97,87 %
16.06.2020 15:30 22,4 C 22,8 C 20,0 C 76 % 1015,2 hPa 0,0 l/m 0 min 0 min 261 W/m 3,2 km/h (1 Bft) 97,87 %
16.06.2020 15:32 22,3 C 22,8 C 20,0 C 77 % 1015,2 hPa 0,0 l/m 0 min 0 min 266 W/m 0,0 km/h (0 Bft) 97,87 %
16.06.2020 15:34 22,3 C 22,8 C 20,0 C 76 % 1015,3 hPa 0,0 l/m 0 min 0 min 273 W/m 0,0 km/h (0 Bft) 97,87 %
16.06.2020 15:36 22,3 C 22,8 C 20,0 C 76 % 1015,3 hPa 0,0 l/m 0 min 0 min 283 W/m 0,0 km/h (0 Bft) 97,83 %
16.06.2020 15:38 22,3 C 22,8 C 20,0 C 76 % 1015,3 hPa 0,0 l/m 0 min 2 min 293 W/m 9,7 km/h (2 Bft) 100,00 %
16.06.2020 15:40 22,3 C 22,8 C 20,0 C 77 % 1015,3 hPa 0,0 l/m 0 min 0 min 304 W/m 0,0 km/h (0 Bft) 100,00 %
16.06.2020 15:42 22,3 C 23,3 C 20,0 C 77 % 1015,3 hPa 0,0 l/m 0 min 0 min 317 W/m 0,0 km/h (0 Bft) 100,00 %
16.06.2020 15:44 22,3 C 23,3 C 20,0 C 77 % 1015,3 hPa 0,0 l/m 0 min 0 min 328 W/m 3,2 km/h (1 Bft) 100,00 %
16.06.2020 15:46 22,3 C 23,3 C 20,6 C 77 % 1015,3 hPa 0,0 l/m 0 min 0 min 330 W/m 0,0 km/h (0 Bft) 100,00 %
16.06.2020 15:48 22,3 C 23,9 C 20,6 C 77 % 1015,3 hPa 0,0 l/m 0 min 0 min 360 W/m 3,2 km/h (1 Bft) 100,00 %
16.06.2020 15:50 22,3 C 23,9 C 20,6 C 76 % 1015,3 hPa 0,0 l/m 0 min 0 min 373 W/m 16,1 km/h (3 Bft) 100,00 %
16.06.2020 15:52 22,3 C 23,9 C 20,6 C 76 % 1015,3 hPa 0,0 l/m 0 min 0 min 374 W/m 6,4 km/h (2 Bft) 95,74 %
16.06.2020 15:54 22,3 C 23,9 C 20,6 C 76 % 1015,3 hPa 0,0 l/m 0 min 0 min 370 W/m 6,4 km/h (2 Bft) 97,87 %
16.06.2020 15:56 22,3 C 23,9 C 20,6 C 76 % 1015,2 hPa 0,0 l/m 0 min 0 min 361 W/m 6,4 km/h (2 Bft) 100,00 %
16.06.2020 15:58 22,3 C 23,9 C 20,6 C 77 % 1015,2 hPa 0,0 l/m 0 min 0 min 351 W/m 6,4 km/h (2 Bft) 100,00 %
16.06.2020 16:00 22,3 C 23,9 C 20,6 C 76 % 1015,2 hPa 0,0 l/m 0 min 0 min 332 W/m 0,0 km/h (0 Bft) 100,00 %
16.06.2020 16:02 22,3 C 23,9 C 20,6 C 76 % 1015,2 hPa 0,0 l/m 0 min 0 min 308 W/m 6,4 km/h (2 Bft) 100,00 %
16.06.2020 16:04 22,3 C 23,3 C 20,6 C 76 % 1015,2 hPa 0,0 l/m 0 min 0 min 295 W/m 6,4 km/h (2 Bft) 100,00 %
16.06.2020 16:06 22,3 C 23,3 C 20,6 C 76 % 1015,2 hPa 0,0 l/m 0 min 0 min 285 W/m 6,4 km/h (2 Bft) 100,00 %
16.06.2020 16:08 22,3 C 23,3 C 20,6 C 76 % 1015,2 hPa 0,0 l/m 0 min 0 min 275 W/m 12,9 km/h (3 Bft) 100,00 %
16.06.2020 16:10 22,3 C 22,8 C 20,6 C 76 % 1015,2 hPa 0,0 l/m 0 min 0 min 267 W/m 6,4 km/h (2 Bft) 100,00 %
16.06.2020 16:12 22,4 C 22,8 C 20,6 C 76 % 1015,2 hPa 0,0 l/m 0 min 0 min 255 W/m 3,2 km/h (1 Bft) 100,00 %
16.06.2020 16:14 22,3 C 22,8 C 20,6 C 75 % 1015,2 hPa 0,0 l/m 0 min 0 min 246 W/m 6,4 km/h (2 Bft) 97,87 %
16.06.2020 16:16 22,3 C 22,8 C 20,0 C 74 % 1015,2 hPa 0,0 l/m 0 min 0 min 239 W/m 6,4 km/h (2 Bft) 97,87 %
16.06.2020 16:18 22,3 C 22,8 C 20,0 C 74 % 1015,1 hPa 0,0 l/m 0 min 0 min 234 W/m 3,2 km/h (1 Bft) 100,00 %
16.06.2020 16:20 22,4 C 22,8 C 20,0 C 75 % 1015,1 hPa 0,0 l/m 0 min 0 min 223 W/m 3,2 km/h (1 Bft) 100,00 %
16.06.2020 16:22 22,3 C 22,2 C 20,0 C 75 % 1015,0 hPa 0,0 l/m 0 min 0 min 209 W/m 6,4 km/h (2 Bft) 96,00 %
16.06.2020 16:24 22,3 C 22,2 C 20,0 C 74 % 1015,0 hPa 0,0 l/m 0 min 0 min 200 W/m 3,2 km/h (1 Bft) 97,83 %
16.06.2020 16:26 22,3 C 22,2 C 20,0 C 74 % 1015,0 hPa 0,0 l/m 0 min 0 min 195 W/m 0,0 km/h (0 Bft) 97,87 %
16.06.2020 16:28 22,3 C 22,2 C 20,0 C 74 % 1015,0 hPa 0,0 l/m 0 min 0 min 194 W/m 3,2 km/h (1 Bft) 100,00 %
16.06.2020 16:30 22,3 C 22,2 C 20,0 C 74 % 1015,0 hPa 0,0 l/m 0 min 2 min 197 W/m 6,4 km/h (2 Bft) 100,00 %
16.06.2020 16:32 22,3 C 22,2 C 20,0 C 75 % 1015,0 hPa 0,0 l/m 0 min 0 min 200 W/m 3,2 km/h (1 Bft) 95,74 %
16.06.2020 16:34 22,3 C 22,2 C 20,0 C 75 % 1014,9 hPa 0,0 l/m 0 min 0 min 200 W/m 3,2 km/h (1 Bft) 97,83 %
16.06.2020 16:36 22,3 C 22,2 C 20,0 C 75 % 1014,9 hPa 0,0 l/m 0 min 0 min 199 W/m 0,0 km/h (0 Bft) 97,87 %
16.06.2020 16:38 22,3 C 22,2 C 20,0 C 75 % 1014,9 hPa 0,0 l/m 0 min 0 min 197 W/m 3,2 km/h (1 Bft) 100,00 %
16.06.2020 16:40 22,3 C 22,2 C 20,0 C 75 % 1014,8 hPa 0,0 l/m 0 min 0 min 195 W/m 0,0 km/h (0 Bft) 100,00 %
16.06.2020 16:42 22,3 C 22,2 C 20,0 C 75 % 1014,8 hPa 0,0 l/m 0 min 0 min 194 W/m 0,0 km/h (0 Bft) 97,87 %
16.06.2020 16:44 22,3 C 22,2 C 20,0 C 76 % 1014,8 hPa 0,0 l/m 0 min 0 min 193 W/m 0,0 km/h (0 Bft) 97,87 %
16.06.2020 16:46 22,2 C 22,2 C 20,0 C 76 % 1014,8 hPa 0,0 l/m 0 min 0 min 193 W/m 6,4 km/h (2 Bft) 97,83 %
16.06.2020 16:48 22,2 C 22,8 C 20,0 C 76 % 1014,8 hPa 0,0 l/m 0 min 0 min 193 W/m 3,2 km/h (1 Bft) 95,74 %
16.06.2020 16:50 22,2 C 22,8 C 20,0 C 76 % 1014,8 hPa 0,0 l/m 0 min 2 min 194 W/m 3,2 km/h (1 Bft) 97,87 %
16.06.2020 16:52 22,2 C 22,2 C 20,0 C 76 % 1014,8 hPa 0,0 l/m 0 min 0 min 196 W/m 3,2 km/h (1 Bft) 97,87 %
16.06.2020 16:54 22,2 C 22,2 C 20,0 C 76 % 1014,7 hPa 0,0 l/m 0 min 0 min 198 W/m 3,2 km/h (1 Bft) 97,87 %
16.06.2020 16:56 22,2 C 22,2 C 20,0 C 76 % 1014,7 hPa 0,0 l/m 0 min 0 min 199 W/m 3,2 km/h (1 Bft) 97,87 %
16.06.2020 16:58 22,2 C 22,2 C 20,0 C 76 % 1014,7 hPa 0,0 l/m 0 min 2 min 196 W/m 3,2 km/h (1 Bft) 97,92 %
16.06.2020 17:00 22,2 C 22,2 C 20,0 C 76 % 1014,7 hPa 0,0 l/m 0 min 0 min 192 W/m 3,2 km/h (1 Bft) 95,74 %
16.06.2020 17:02 22,2 C 22,2 C 20,0 C 76 % 1014,7 hPa 0,0 l/m 0 min 2 min 190 W/m 12,9 km/h (3 Bft) 95,74 %
16.06.2020 17:04 22,2 C 21,7 C 20,0 C 75 % 1014,7 hPa 0,0 l/m 0 min 0 min 189 W/m 12,9 km/h (3 Bft) 95,74 %
16.06.2020 17:06 22,1 C 21,1 C 20,0 C 75 % 1014,6 hPa 0,0 l/m 0 min 2 min 192 W/m 6,4 km/h (2 Bft) 95,74 %
16.06.2020 17:08 22,1 C 21,7 C 20,0 C 75 % 1014,7 hPa 0,0 l/m 0 min 0 min 197 W/m 6,4 km/h (2 Bft) 95,74 %
16.06.2020 17:10 22,1 C 22,2 C 20,0 C 75 % 1014,7 hPa 0,0 l/m 0 min 0 min 202 W/m 0,0 km/h (0 Bft) 93,48 %
16.06.2020 17:12 22,1 C 22,2 C 20,0 C 75 % 1014,6 hPa 0,0 l/m 0 min 2 min 207 W/m 0,0 km/h (0 Bft) 95,74 %
16.06.2020 17:14 22,1 C 22,2 C 20,0 C 76 % 1014,6 hPa 0,0 l/m 0 min 0 min 211 W/m 0,0 km/h (0 Bft) 95,74 %
16.06.2020 17:16 22,1 C 22,2 C 20,0 C 76 % 1014,6 hPa 0,0 l/m 0 min 2 min 217 W/m 12,9 km/h (3 Bft) 91,49 %
16.06.2020 17:18 22,1 C 22,2 C 20,0 C 75 % 1014,6 hPa 0,0 l/m 0 min 2 min 222 W/m 6,4 km/h (2 Bft) 95,74 %
16.06.2020 17:20 22,1 C 22,2 C 20,0 C 74 % 1014,6 hPa 0,0 l/m 0 min 0 min 230 W/m 12,9 km/h (3 Bft) 97,87 %
16.06.2020 17:22 22,1 C 22,2 C 20,0 C 73 % 1014,6 hPa 0,0 l/m 0 min 0 min 235 W/m 6,4 km/h (2 Bft) 95,65 %
16.06.2020 17:24 22,1 C 22,2 C 20,0 C 74 % 1014,6 hPa 0,0 l/m 0 min 2 min 240 W/m 6,4 km/h (2 Bft) 95,74 %
16.06.2020 17:26 22,0 C 22,8 C 20,0 C 74 % 1014,6 hPa 0,0 l/m 0 min 0 min 246 W/m 3,2 km/h (1 Bft) 95,74 %
16.06.2020 17:28 22,0 C 22,8 C 20,0 C 74 % 1014,7 hPa 0,0 l/m 0 min 0 min 255 W/m 6,4 km/h (2 Bft) 95,74 %
16.06.2020 17:30 22,0 C 22,8 C 20,0 C 73 % 1014,6 hPa 0,0 l/m 0 min 0 min 265 W/m 12,9 km/h (3 Bft) 95,74 %
16.06.2020 17:32 22,0 C 22,8 C 20,0 C 72 % 1014,6 hPa 0,0 l/m 0 min 0 min 276 W/m 12,9 km/h (3 Bft) 93,62 %
16.06.2020 17:34 22,0 C 22,8 C 20,0 C 72 % 1014,6 hPa 0,0 l/m 0 min 0 min 278 W/m 6,4 km/h (2 Bft) 93,48 %
16.06.2020 17:36 22,0 C 23,3 C 20,0 C 72 % 1014,6 hPa 0,0 l/m 0 min 0 min 279 W/m 3,2 km/h (1 Bft) 95,74 %
16.06.2020 17:38 22,1 C 23,3 C 20,6 C 72 % 1014,5 hPa 0,0 l/m 0 min 0 min 283 W/m 3,2 km/h (1 Bft) 97,14 %
16.06.2020 17:40 22,1 C 23,3 C 20,6 C 72 % 1014,5 hPa 0,0 l/m 0 min 0 min 277 W/m 3,2 km/h (1 Bft) 97,87 %
16.06.2020 17:42 22,1 C 23,3 C 20,6 C 72 % 1014,5 hPa 0,0 l/m 0 min 0 min 270 W/m 0,0 km/h (0 Bft) 100,00 %
16.06.2020 17:44 22,1 C 23,3 C 20,0 C 71 % 1014,4 hPa 0,0 l/m 0 min 0 min 265 W/m 3,2 km/h (1 Bft) 100,00 %
16.06.2020 17:46 22,1 C 23,3 C 20,0 C 72 % 1014,5 hPa 0,0 l/m 0 min 0 min 261 W/m 6,4 km/h (2 Bft) 95,74 %
16.06.2020 17:48 22,2 C 23,3 C 20,6 C 71 % 1014,4 hPa 0,0 l/m 0 min 0 min 253 W/m 6,4 km/h (2 Bft) 100,00 %
16.06.2020 17:50 22,2 C 23,3 C 20,0 C 71 % 1014,5 hPa 0,0 l/m 0 min 0 min 238 W/m 3,2 km/h (1 Bft) 97,87 %
16.06.2020 17:52 22,2 C 22,8 C 20,0 C 71 % 1014,4 hPa 0,0 l/m 0 min 0 min 219 W/m 3,2 km/h (1 Bft) 98,21 %
16.06.2020 17:54 22,2 C 22,8 C 20,0 C 71 % 1014,4 hPa 0,0 l/m 0 min 0 min 207 W/m 3,2 km/h (1 Bft) 95,74 %
16.06.2020 17:56 22,3 C 22,8 C 20,0 C 71 % 1014,5 hPa 0,0 l/m 0 min 0 min 196 W/m 0,0 km/h (0 Bft) 97,83 %
16.06.2020 17:58 22,3 C 22,8 C 20,0 C 71 % 1014,4 hPa 0,0 l/m 0 min 0 min 188 W/m 9,7 km/h (2 Bft) 97,87 %
16.06.2020 18:00 22,3 C 22,2 C 20,0 C 71 % 1014,4 hPa 0,0 l/m 0 min 0 min 181 W/m 6,4 km/h (2 Bft) 97,87 %
16.06.2020 18:02 22,3 C 22,2 C 20,0 C 71 % 1014,4 hPa 0,0 l/m 0 min 0 min 174 W/m 3,2 km/h (1 Bft) 93,62 %
16.06.2020 18:04 22,3 C 22,2 C 20,0 C 71 % 1014,4 hPa 0,0 l/m 0 min 0 min 168 W/m 3,2 km/h (1 Bft) 97,87 %
16.06.2020 18:08 22,3 C 22,2 C 20,0 C 71 % 1014,3 hPa 0,0 l/m 0 min 0 min 164 W/m 3,2 km/h (1 Bft) 96,77 %
16.06.2020 18:10 22,3 C 22,2 C 20,0 C 71 % 1014,2 hPa 0,0 l/m 0 min 0 min 163 W/m 3,2 km/h (1 Bft) 97,87 %
16.06.2020 18:12 22,3 C 22,2 C 20,0 C 70 % 1014,2 hPa 0,0 l/m 0 min 0 min 165 W/m 6,4 km/h (2 Bft) 95,74 %
16.06.2020 18:14 22,3 C 22,2 C 20,0 C 70 % 1014,2 hPa 0,0 l/m 0 min 0 min 170 W/m 0,0 km/h (0 Bft) 97,87 %
16.06.2020 18:16 22,3 C 22,2 C 20,0 C 70 % 1014,2 hPa 0,0 l/m 0 min 0 min 173 W/m 9,7 km/h (2 Bft) 97,87 %
16.06.2020 18:18 22,3 C 22,2 C 20,0 C 71 % 1014,2 hPa 0,0 l/m 0 min 0 min 176 W/m 0,0 km/h (0 Bft) 97,87 %
16.06.2020 18:20 22,3 C 22,2 C 20,0 C 71 % 1014,1 hPa 0,0 l/m 0 min 0 min 177 W/m 3,2 km/h (1 Bft) 97,83 %
16.06.2020 18:22 22,3 C 22,2 C 20,0 C 71 % 1014,1 hPa 0,0 l/m 0 min 0 min 176 W/m 6,4 km/h (2 Bft) 97,87 %
16.06.2020 18:24 22,3 C 22,2 C 20,0 C 71 % 1014,2 hPa 0,0 l/m 0 min 0 min 172 W/m 6,4 km/h (2 Bft) 97,87 %
16.06.2020 18:26 22,3 C 22,2 C 20,0 C 71 % 1014,2 hPa 0,0 l/m 0 min 0 min 170 W/m 3,2 km/h (1 Bft) 97,87 %
16.06.2020 18:28 22,3 C 22,2 C 20,0 C 71 % 1014,1 hPa 0,0 l/m 0 min 0 min 166 W/m 6,4 km/h (2 Bft) 97,87 %
16.06.2020 18:30 22,3 C 22,2 C 20,0 C 71 % 1014,1 hPa 0,0 l/m 0 min 0 min 163 W/m 6,4 km/h (2 Bft) 97,87 %
16.06.2020 18:32 22,3 C 22,2 C 20,0 C 70 % 1014,1 hPa 0,0 l/m 0 min 0 min 162 W/m 12,9 km/h (3 Bft) 95,65 %
16.06.2020 18:34 22,3 C 22,2 C 20,0 C 70 % 1014,1 hPa 0,0 l/m 0 min 0 min 160 W/m 12,9 km/h (3 Bft) 97,87 %
16.06.2020 18:36 22,3 C 21,7 C 20,0 C 70 % 1014,1 hPa 0,0 l/m 0 min 0 min 156 W/m 12,9 km/h (3 Bft) 97,87 %
16.06.2020 18:38 22,2 C 21,7 C 20,0 C 70 % 1014,1 hPa 0,0 l/m 0 min 0 min 150 W/m 6,4 km/h (2 Bft) 100,00 %
16.06.2020 18:40 22,2 C 21,7 C 20,0 C 71 % 1014,1 hPa 0,0 l/m 0 min 0 min 147 W/m 3,2 km/h (1 Bft) 100,00 %
16.06.2020 18:42 22,2 C 21,7 C 20,0 C 70 % 1014,1 hPa 0,0 l/m 0 min 0 min 143 W/m 16,1 km/h (3 Bft) 97,87 %
16.06.2020 18:44 22,2 C 21,7 C 20,0 C 71 % 1014,1 hPa 0,0 l/m 0 min 0 min 142 W/m 12,9 km/h (3 Bft) 100,00 %
16.06.2020 18:46 22,2 C 21,1 C 20,0 C 75 % 1014,1 hPa 0,0 l/m 0 min 0 min 142 W/m 16,1 km/h (3 Bft) 100,00 %
16.06.2020 18:48 22,2 C 21,1 C 20,0 C 76 % 1014,1 hPa 0,0 l/m 0 min 0 min 141 W/m 12,9 km/h (3 Bft) 100,00 %
16.06.2020 18:50 22,2 C 21,1 C 20,0 C 76 % 1014,1 hPa 0,0 l/m 0 min 0 min 139 W/m 12,9 km/h (3 Bft) 100,00 %
16.06.2020 18:52 22,2 C 21,1 C 20,0 C 77 % 1014,1 hPa 0,0 l/m 0 min 0 min 136 W/m 6,4 km/h (2 Bft) 100,00 %
16.06.2020 18:54 22,2 C 21,1 C 19,4 C 78 % 1014,0 hPa 0,0 l/m 0 min 0 min 135 W/m 12,9 km/h (3 Bft) 100,00 %
16.06.2020 18:56 22,2 C 21,1 C 19,4 C 78 % 1014,1 hPa 0,0 l/m 0 min 0 min 133 W/m 16,1 km/h (3 Bft) 100,00 %
16.06.2020 18:58 22,2 C 21,1 C 19,4 C 78 % 1014,1 hPa 0,0 l/m 0 min 0 min 132 W/m 9,7 km/h (2 Bft) 100,00 %
16.06.2020 19:00 22,1 C 21,1 C 19,4 C 78 % 1014,1 hPa 0,0 l/m 0 min 0 min 132 W/m 6,4 km/h (2 Bft) 97,87 %
16.06.2020 19:02 22,1 C 21,1 C 19,4 C 78 % 1014,1 hPa 0,0 l/m 0 min 0 min 133 W/m 16,1 km/h (3 Bft) 100,00 %
16.06.2020 19:04 22,1 C 21,1 C 19,4 C 78 % 1014,0 hPa 0,0 l/m 0 min 0 min 133 W/m 6,4 km/h (2 Bft) 100,00 %
16.06.2020 19:06 22,0 C 21,1 C 19,4 C 78 % 1014,1 hPa 0,0 l/m 0 min 0 min 134 W/m 16,1 km/h (3 Bft) 100,00 %
16.06.2020 19:08 21,9 C 21,1 C 19,4 C 78 % 1014,1 hPa 0,0 l/m 0 min 0 min 135 W/m 16,1 km/h (3 Bft) 100,00 %
16.06.2020 19:10 21,8 C 21,1 C 19,4 C 78 % 1014,0 hPa 0,0 l/m 0 min 0 min 141 W/m 6,4 km/h (2 Bft) 100,00 %
16.06.2020 19:12 21,8 C 21,1 C 19,4 C 78 % 1014,1 hPa 0,0 l/m 0 min 0 min 153 W/m 12,9 km/h (3 Bft) 100,00 %
16.06.2020 19:14 21,8 C 21,1 C 19,4 C 79 % 1014,1 hPa 0,0 l/m 0 min 0 min 181 W/m 16,1 km/h (3 Bft) 100,00 %
16.06.2020 19:16 21,7 C 21,1 C 19,4 C 79 % 1014,0 hPa 0,0 l/m 2 min 0 min 208 W/m 3,2 km/h (1 Bft) 100,00 %
16.06.2020 19:18 21,7 C 21,7 C 19,4 C 79 % 1014,0 hPa 0,0 l/m 2 min 0 min 230 W/m 6,4 km/h (2 Bft) 100,00 %
16.06.2020 19:20 21,7 C 22,2 C 19,4 C 79 % 1014,1 hPa 0,0 l/m 2 min 0 min 308 W/m 12,9 km/h (3 Bft) 100,00 %
16.06.2020 19:22 21,7 C 22,2 C 20,0 C 80 % 1014,1 hPa 0,0 l/m 2 min 0 min 289 W/m 12,9 km/h (3 Bft) 95,74 %
16.06.2020 19:24 21,7 C 22,2 C 20,0 C 80 % 1014,0 hPa 0,0 l/m 2 min 0 min 258 W/m 12,9 km/h (3 Bft) 100,00 %
16.06.2020 19:26 21,7 C 22,2 C 20,0 C 79 % 1014,0 hPa 0,0 l/m 2 min 0 min 276 W/m 12,9 km/h (3 Bft) 97,87 %
16.06.2020 19:28 21,7 C 22,2 C 20,0 C 79 % 1014,0 hPa 0,0 l/m 2 min 0 min 289 W/m 6,4 km/h (2 Bft) 100,00 %
16.06.2020 19:30 21,7 C 22,2 C 20,0 C 79 % 1014,0 hPa 0,0 l/m 2 min 0 min 310 W/m 12,9 km/h (3 Bft) 97,87 %
16.06.2020 19:32 21,7 C 22,2 C 20,0 C 79 % 1013,9 hPa 0,0 l/m 2 min 0 min 232 W/m 16,1 km/h (3 Bft) 97,92 %
16.06.2020 19:34 21,8 C 22,2 C 20,0 C 79 % 1014,0 hPa 0,0 l/m 2 min 0 min 183 W/m 12,9 km/h (3 Bft) 95,74 %
16.06.2020 19:36 21,8 C 22,2 C 20,0 C 79 % 1014,0 hPa 0,0 l/m 2 min 0 min 189 W/m 6,4 km/h (2 Bft) 95,74 %
16.06.2020 19:38 21,8 C 22,2 C 20,0 C 78 % 1013,9 hPa 0,0 l/m 2 min 0 min 288 W/m 12,9 km/h (3 Bft) 95,74 %
16.06.2020 19:40 21,8 C 22,2 C 20,0 C 78 % 1013,9 hPa 0,0 l/m 2 min 0 min 323 W/m 6,4 km/h (2 Bft) 95,65 %
16.06.2020 19:42 21,8 C 21,7 C 20,0 C 78 % 1013,9 hPa 0,0 l/m 2 min 0 min 197 W/m 16,1 km/h (3 Bft) 97,87 %
16.06.2020 19:44 21,8 C 21,7 C 19,4 C 78 % 1013,9 hPa 0,0 l/m 2 min 0 min 172 W/m 12,9 km/h (3 Bft) 95,74 %
16.06.2020 19:46 21,9 C 21,1 C 19,4 C 78 % 1013,9 hPa 0,0 l/m 2 min 0 min 155 W/m 6,4 km/h (2 Bft) 95,74 %
16.06.2020 19:48 21,9 C 21,1 C 19,4 C 78 % 1013,9 hPa 0,0 l/m 0 min 0 min 134 W/m 6,4 km/h (2 Bft) 95,74 %
16.06.2020 19:50 21,9 C 21,1 C 19,4 C 78 % 1013,9 hPa 0,0 l/m 0 min 0 min 124 W/m 6,4 km/h (2 Bft) 95,74 %
16.06.2020 19:52 21,9 C 21,1 C 19,4 C 78 % 1013,9 hPa 0,0 l/m 0 min 0 min 118 W/m 16,1 km/h (3 Bft) 95,65 %
16.06.2020 19:54 21,9 C 21,1 C 19,4 C 78 % 1013,9 hPa 0,0 l/m 0 min 0 min 113 W/m 12,9 km/h (3 Bft) 95,74 %
16.06.2020 19:56 21,9 C 21,1 C 19,4 C 78 % 1013,9 hPa 0,0 l/m 0 min 0 min 112 W/m 6,4 km/h (2 Bft) 93,62 %
16.06.2020 19:58 21,9 C 21,1 C 19,4 C 78 % 1013,9 hPa 0,0 l/m 0 min 0 min 114 W/m 16,1 km/h (3 Bft) 95,74 %
16.06.2020 20:00 21,8 C 20,6 C 19,4 C 78 % 1013,9 hPa 0,0 l/m 0 min 0 min 100 W/m 16,1 km/h (3 Bft) 93,62 %
16.06.2020 20:02 21,8 C 20,6 C 19,4 C 78 % 1013,9 hPa 0,0 l/m 0 min 0 min 94 W/m 6,4 km/h (2 Bft) 95,74 %
16.06.2020 20:04 21,8 C 20,6 C 19,4 C 78 % 1013,9 hPa 0,0 l/m 0 min 0 min 88 W/m 6,4 km/h (2 Bft) 95,74 %
16.06.2020 20:06 21,8 C 20,6 C 19,4 C 78 % 1013,9 hPa 0,0 l/m 0 min 0 min 79 W/m 6,4 km/h (2 Bft) 95,74 %
16.06.2020 20:08 21,8 C 20,6 C 19,4 C 78 % 1013,9 hPa 0,0 l/m 0 min 0 min 72 W/m 16,1 km/h (3 Bft) 95,74 %
16.06.2020 20:10 21,7 C 20,0 C 19,4 C 78 % 1013,9 hPa 0,0 l/m 0 min 0 min 65 W/m 12,9 km/h (3 Bft) 91,49 %
16.06.2020 20:12 21,7 C 20,0 C 19,4 C 78 % 1013,9 hPa 0,0 l/m 0 min 0 min 56 W/m 6,4 km/h (2 Bft) 97,87 %
16.06.2020 20:14 21,6 C 20,0 C 19,4 C 77 % 1013,9 hPa 0,0 l/m 0 min 0 min 52 W/m 6,4 km/h (2 Bft) 97,83 %
16.06.2020 20:16 21,6 C 20,0 C 18,9 C 77 % 1013,8 hPa 0,0 l/m 0 min 0 min 51 W/m 3,2 km/h (1 Bft) 97,87 %
16.06.2020 20:18 21,6 C 20,0 C 18,9 C 78 % 1013,8 hPa 0,0 l/m 0 min 0 min 53 W/m 6,4 km/h (2 Bft) 95,74 %
16.06.2020 20:20 21,5 C 20,0 C 18,9 C 78 % 1013,8 hPa 0,0 l/m 0 min 0 min 51 W/m 6,4 km/h (2 Bft) 97,87 %
16.06.2020 20:22 21,4 C 20,0 C 18,9 C 78 % 1013,8 hPa 0,0 l/m 0 min 0 min 51 W/m 3,2 km/h (1 Bft) 97,87 %
16.06.2020 20:24 21,4 C 20,0 C 18,9 C 78 % 1013,8 hPa 0,0 l/m 0 min 0 min 46 W/m 6,4 km/h (2 Bft) 97,87 %
16.06.2020 20:26 21,4 C 20,0 C 18,9 C 78 % 1013,8 hPa 0,0 l/m 0 min 0 min 43 W/m 6,4 km/h (2 Bft) 93,48 %
16.06.2020 20:28 21,3 C 20,0 C 18,9 C 78 % 1013,8 hPa 0,0 l/m 0 min 0 min 50 W/m 3,2 km/h (1 Bft) 97,87 %
16.06.2020 20:30 21,3 C 20,0 C 18,9 C 78 % 1013,8 hPa 0,0 l/m 0 min 0 min 53 W/m 12,9 km/h (3 Bft) 97,87 %
16.06.2020 20:32 21,3 C 20,0 C 18,9 C 78 % 1013,8 hPa 0,0 l/m 0 min 0 min 50 W/m 6,4 km/h (2 Bft) 97,87 %
16.06.2020 20:34 21,2 C 20,0 C 18,9 C 78 % 1013,8 hPa 0,0 l/m 0 min 0 min 47 W/m 3,2 km/h (1 Bft) 97,87 %
16.06.2020 20:36 21,2 C 20,0 C 18,9 C 77 % 1013,7 hPa 0,0 l/m 0 min 0 min 44 W/m 3,2 km/h (1 Bft) 97,87 %
16.06.2020 20:38 21,1 C 20,0 C 18,9 C 78 % 1013,7 hPa 0,0 l/m 0 min 0 min 40 W/m 6,4 km/h (2 Bft) 97,83 %
16.06.2020 20:40 21,1 C 19,4 C 18,9 C 78 % 1013,7 hPa 0,0 l/m 0 min 0 min 39 W/m 16,1 km/h (3 Bft) 97,87 %
16.06.2020 20:42 21,1 C 19,4 C 18,9 C 78 % 1013,7 hPa 0,0 l/m 0 min 0 min 37 W/m 12,9 km/h (3 Bft) 97,87 %
16.06.2020 20:44 21,1 C 19,4 C 18,9 C 78 % 1013,7 hPa 0,0 l/m 0 min 0 min 35 W/m 6,4 km/h (2 Bft) 97,87 %
16.06.2020 20:46 20,9 C 19,4 C 18,9 C 78 % 1013,7 hPa 0,0 l/m 0 min 0 min 35 W/m 0,0 km/h (0 Bft) 100,00 %
16.06.2020 20:48 20,9 C 19,4 C 18,9 C 78 % 1013,7 hPa 0,0 l/m 0 min 0 min 33 W/m 3,2 km/h (1 Bft) 100,00 %
16.06.2020 20:50 20,9 C 19,4 C 18,3 C 78 % 1013,7 hPa 0,0 l/m 0 min 0 min 32 W/m 3,2 km/h (1 Bft) 95,65 %
16.06.2020 20:52 20,9 C 19,4 C 18,3 C 78 % 1013,7 hPa 0,0 l/m 0 min 0 min 29 W/m 3,2 km/h (1 Bft) 97,87 %
16.06.2020 20:54 20,8 C 19,4 C 18,3 C 78 % 1013,7 hPa 0,0 l/m 0 min 0 min 26 W/m 3,2 km/h (1 Bft) 97,87 %
16.06.2020 20:56 20,8 C 19,4 C 18,3 C 78 % 1013,7 hPa 0,0 l/m 0 min 0 min 25 W/m 3,2 km/h (1 Bft) 97,87 %
16.06.2020 20:58 20,8 C 18,9 C 18,3 C 78 % 1013,7 hPa 0,0 l/m 0 min 0 min 25 W/m 3,2 km/h (1 Bft) 97,87 %
16.06.2020 21:00 20,8 C 18,9 C 18,3 C 79 % 1013,7 hPa 0,0 l/m 0 min 0 min 25 W/m 0,0 km/h (0 Bft) 97,83 %
16.06.2020 21:02 20,7 C 18,9 C 18,3 C 79 % 1013,7 hPa 0,0 l/m 0 min 0 min 23 W/m 0,0 km/h (0 Bft) 95,83 %
16.06.2020 21:04 20,7 C 18,9 C 18,3 C 79 % 1013,8 hPa 0,0 l/m 0 min 0 min 23 W/m 0,0 km/h (0 Bft) 97,87 %
16.06.2020 21:06 20,7 C 18,9 C 17,8 C 79 % 1013,8 hPa 0,0 l/m 0 min 0 min 21 W/m 3,2 km/h (1 Bft) 97,87 %
16.06.2020 21:08 20,7 C 18,9 C 17,8 C 79 % 1013,8 hPa 0,0 l/m 0 min 0 min 20 W/m 0,0 km/h (0 Bft) 97,87 %
16.06.2020 21:10 20,6 C 18,9 C 17,8 C 79 % 1013,9 hPa 0,0 l/m 0 min 0 min 19 W/m 3,2 km/h (1 Bft) 97,87 %
16.06.2020 21:12 20,6 C 18,9 C 17,8 C 79 % 1013,9 hPa 0,0 l/m 0 min 0 min 18 W/m 3,2 km/h (1 Bft) 97,83 %
16.06.2020 21:14 20,6 C 18,9 C 18,3 C 80 % 1013,8 hPa 0,0 l/m 0 min 0 min 18 W/m 3,2 km/h (1 Bft) 97,87 %
16.06.2020 21:16 20,6 C 18,9 C 18,3 C 80 % 1013,9 hPa 0,0 l/m 0 min 0 min 18 W/m 3,2 km/h (1 Bft) 97,87 %
16.06.2020 21:18 20,6 C 18,9 C 17,8 C 80 % 1013,8 hPa 0,0 l/m 0 min 0 min 18 W/m 3,2 km/h (1 Bft) 97,87 %
16.06.2020 21:20 20,5 C 18,9 C 17,8 C 80 % 1013,8 hPa 0,0 l/m 0 min 0 min 18 W/m 0,0 km/h (0 Bft) 97,87 %
16.06.2020 21:22 20,4 C 18,9 C 17,8 C 80 % 1013,9 hPa 0,0 l/m 0 min 0 min 18 W/m 3,2 km/h (1 Bft) 97,87 %
16.06.2020 21:24 20,4 C 18,9 C 17,8 C 80 % 1013,9 hPa 0,0 l/m 0 min 0 min 18 W/m 0,0 km/h (0 Bft) 95,65 %
16.06.2020 21:26 20,4 C 18,9 C 17,8 C 80 % 1013,9 hPa 0,0 l/m 0 min 0 min 16 W/m 3,2 km/h (1 Bft) 97,87 %
16.06.2020 21:28 20,4 C 18,9 C 17,8 C 80 % 1013,9 hPa 0,0 l/m 0 min 0 min 16 W/m 3,2 km/h (1 Bft) 97,87 %
16.06.2020 21:30 20,3 C 18,9 C 17,8 C 81 % 1013,9 hPa 0,0 l/m 0 min 0 min 15 W/m 3,2 km/h (1 Bft) 97,87 %
16.06.2020 21:32 20,3 C 18,9 C 17,8 C 81 % 1013,9 hPa 0,0 l/m 0 min 0 min 12 W/m 0,0 km/h (0 Bft) 97,92 %
16.06.2020 21:34 20,3 C 18,9 C 17,8 C 81 % 1013,9 hPa 0,0 l/m 0 min 0 min 11 W/m 0,0 km/h (0 Bft) 97,87 %
16.06.2020 21:36 20,3 C 18,3 C 17,8 C 81 % 1014,0 hPa 0,0 l/m 0 min 0 min 11 W/m 3,2 km/h (1 Bft) 97,83 %
16.06.2020 21:38 20,2 C 18,3 C 17,8 C 81 % 1013,9 hPa 0,0 l/m 0 min 0 min 9 W/m 0,0 km/h (0 Bft) 97,87 %
16.06.2020 21:40 20,2 C 18,3 C 17,8 C 81 % 1013,9 hPa 0,0 l/m 0 min 0 min 7 W/m 0,0 km/h (0 Bft) 97,87 %
16.06.2020 21:42 20,2 C 18,3 C 17,8 C 81 % 1013,9 hPa 0,0 l/m 0 min 0 min 7 W/m 0,0 km/h (0 Bft) 95,74 %
16.06.2020 21:44 20,2 C 18,3 C 17,8 C 82 % 1014,0 hPa 0,0 l/m 0 min 0 min 5 W/m 0,0 km/h (0 Bft) 97,87 %
16.06.2020 21:46 20,1 C 18,3 C 17,8 C 82 % 1014,0 hPa 0,0 l/m 0 min 0 min 5 W/m 0,0 km/h (0 Bft) 95,74 %
16.06.2020 21:48 20,1 C 18,3 C 17,8 C 82 % 1014,0 hPa 0,0 l/m 0 min 0 min 5 W/m 0,0 km/h (0 Bft) 97,83 %
16.06.2020 21:50 20,1 C 18,3 C 17,2 C 82 % 1014,0 hPa 0,0 l/m 0 min 0 min 0 W/m 0,0 km/h (0 Bft) 100,00 %
16.06.2020 21:52 20,0 C 18,3 C 17,2 C 82 % 1014,0 hPa 0,0 l/m 0 min 0 min 0 W/m 3,2 km/h (1 Bft) 95,83 %
16.06.2020 21:54 20,0 C 18,3 C 17,2 C 82 % 1014,0 hPa 0,0 l/m 0 min 0 min 0 W/m 0,0 km/h (0 Bft) 98,33 %
16.06.2020 21:56 19,9 C 18,3 C 17,2 C 82 % 1014,0 hPa 0,0 l/m 0 min 0 min 0 W/m 0,0 km/h (0 Bft) 97,87 %
16.06.2020 21:58 19,9 C 18,3 C 17,2 C 82 % 1014,0 hPa 0,0 l/m 0 min 0 min 0 W/m 0,0 km/h (0 Bft) 100,00 %
16.06.2020 22:00 19,9 C 17,8 C 17,2 C 82 % 1014,0 hPa 0,0 l/m 0 min 0 min 0 W/m 0,0 km/h (0 Bft) 100,00 %
16.06.2020 22:02 19,8 C 17,8 C 17,2 C 83 % 1014,1 hPa 0,0 l/m 0 min 0 min 0 W/m 0,0 km/h (0 Bft) 97,83 %
16.06.2020 22:04 19,8 C 17,8 C 17,2 C 83 % 1014,0 hPa 0,0 l/m 0 min 0 min 0 W/m 0,0 km/h (0 Bft) 100,00 %
16.06.2020 22:06 19,8 C 17,8 C 17,2 C 83 % 1014,0 hPa 0,0 l/m 0 min 0 min 0 W/m 0,0 km/h (0 Bft) 100,00 %
16.06.2020 22:08 19,7 C 17,8 C 17,2 C 83 % 1014,1 hPa 0,0 l/m 0 min 0 min 0 W/m 0,0 km/h (0 Bft) 100,00 %
16.06.2020 22:10 19,7 C 17,8 C 17,2 C 83 % 1014,1 hPa 0,0 l/m 0 min 0 min 0 W/m 0,0 km/h (0 Bft) 97,87 %
16.06.2020 22:12 19,7 C 17,8 C 17,2 C 83 % 1014,1 hPa 0,0 l/m 0 min 0 min 0 W/m 0,0 km/h (0 Bft) 95,74 %
16.06.2020 22:14 19,6 C 17,8 C 17,2 C 84 % 1014,1 hPa 0,0 l/m 0 min 0 min 0 W/m 0,0 km/h (0 Bft) 95,65 %
16.06.2020 22:16 19,6 C 17,8 C 17,2 C 84 % 1014,0 hPa 0,0 l/m 0 min 0 min 0 W/m 0,0 km/h (0 Bft) 97,87 %
16.06.2020 22:18 19,6 C 17,8 C 17,2 C 84 % 1014,1 hPa 0,0 l/m 0 min 0 min 0 W/m 0,0 km/h (0 Bft) 97,87 %
16.06.2020 22:20 19,6 C 17,2 C 17,2 C 84 % 1014,1 hPa 0,0 l/m 0 min 0 min 0 W/m 0,0 km/h (0 Bft) 95,74 %
16.06.2020 22:22 19,5 C 17,2 C 17,2 C 84 % 1014,1 hPa 0,0 l/m 0 min 0 min 0 W/m 0,0 km/h (0 Bft) 97,87 %
16.06.2020 22:24 19,4 C 17,2 C 17,2 C 84 % 1014,1 hPa 0,0 l/m 0 min 0 min 0 W/m 0,0 km/h (0 Bft) 97,87 %
16.06.2020 22:26 19,4 C 17,2 C 17,2 C 85 % 1014,1 hPa 0,0 l/m 0 min 0 min 0 W/m 3,2 km/h (1 Bft) 97,83 %
16.06.2020 22:28 19,4 C 17,2 C 16,7 C 85 % 1014,2 hPa 0,0 l/m 0 min 0 min 0 W/m 0,0 km/h (0 Bft) 95,74 %
16.06.2020 22:30 19,3 C 17,2 C 16,7 C 85 % 1014,2 hPa 0,0 l/m 0 min 0 min 0 W/m 0,0 km/h (0 Bft) 97,87 %
16.06.2020 22:32 19,3 C 17,2 C 16,7 C 85 % 1014,2 hPa 0,0 l/m 0 min 0 min 0 W/m 0,0 km/h (0 Bft) 95,74 %
16.06.2020 22:34 19,3 C 17,2 C 16,7 C 85 % 1014,2 hPa 0,0 l/m 0 min 0 min 0 W/m 0,0 km/h (0 Bft) 95,74 %
16.06.2020 22:36 19,2 C 17,2 C 16,7 C 85 % 1014,3 hPa 0,0 l/m 0 min 0 min 0 W/m 0,0 km/h (0 Bft) 95,74 %
16.06.2020 22:38 19,2 C 17,2 C 16,7 C 86 % 1014,2 hPa 0,0 l/m 0 min 0 min 0 W/m 0,0 km/h (0 Bft) 97,83 %
16.06.2020 22:40 19,1 C 16,7 C 16,7 C 86 % 1014,2 hPa 0,0 l/m 0 min 0 min 0 W/m 0,0 km/h (0 Bft) 97,87 %
16.06.2020 22:42 19,1 C 16,7 C 16,7 C 86 % 1014,3 hPa 0,0 l/m 0 min 0 min 0 W/m 0,0 km/h (0 Bft) 97,87 %
16.06.2020 22:44 19,1 C 16,7 C 16,7 C 86 % 1014,2 hPa 0,0 l/m 0 min 0 min 0 W/m 0,0 km/h (0 Bft) 95,74 %
16.06.2020 22:46 19,0 C 16,7 C 16,7 C 86 % 1014,2 hPa 0,0 l/m 0 min 0 min 0 W/m 0,0 km/h (0 Bft) 91,49 %
16.06.2020 22:48 18,9 C 16,7 C 16,1 C 86 % 1014,2 hPa 0,0 l/m 0 min 0 min 0 W/m 0,0 km/h (0 Bft) 89,36 %
16.06.2020 22:50 18,9 C 16,7 C 16,1 C 86 % 1014,2 hPa 0,0 l/m 0 min 0 min 0 W/m 0,0 km/h (0 Bft) 95,65 %
16.06.2020 22:52 18,9 C 16,1 C 16,1 C 86 % 1014,3 hPa 0,0 l/m 0 min 0 min 0 W/m 0,0 km/h (0 Bft) 95,74 %
16.06.2020 22:54 18,8 C 16,1 C 15,6 C 86 % 1014,2 hPa 0,0 l/m 0 min 0 min 0 W/m 0,0 km/h (0 Bft) 95,74 %
16.06.2020 22:56 18,8 C 16,1 C 15,6 C 86 % 1014,3 hPa 0,0 l/m 0 min 0 min 0 W/m 0,0 km/h (0 Bft) 95,74 %
16.06.2020 22:58 18,7 C 16,1 C 15,6 C 86 % 1014,2 hPa 0,0 l/m 0 min 0 min 0 W/m 0,0 km/h (0 Bft) 95,74 %
16.06.2020 23:00 18,7 C 16,1 C 15,6 C 86 % 1014,3 hPa 0,0 l/m 0 min 0 min 0 W/m 0,0 km/h (0 Bft) 97,83 %
16.06.2020 23:02 18,7 C 16,1 C 15,6 C 86 % 1014,3 hPa 0,0 l/m 0 min 0 min 0 W/m 0,0 km/h (0 Bft) 97,87 %
16.06.2020 23:04 18,6 C 16,1 C 15,6 C 86 % 1014,3 hPa 0,0 l/m 0 min 0 min 0 W/m 0,0 km/h (0 Bft) 97,87 %
16.06.2020 23:06 18,6 C 16,1 C 15,6 C 86 % 1014,3 hPa 0,0 l/m 0 min 0 min 0 W/m 0,0 km/h (0 Bft) 97,87 %
16.06.2020 23:08 18,6 C 16,1 C 15,6 C 86 % 1014,4 hPa 0,0 l/m 0 min 0 min 0 W/m 0,0 km/h (0 Bft) 95,74 %
16.06.2020 23:10 18,5 C 16,1 C 15,6 C 86 % 1014,3 hPa 0,0 l/m 0 min 0 min 0 W/m 0,0 km/h (0 Bft) 98,11 %
16.06.2020 23:12 18,4 C 16,1 C 15,6 C 87 % 1014,3 hPa 0,0 l/m 0 min 0 min 0 W/m 0,0 km/h (0 Bft) 95,74 %
16.06.2020 23:14 18,4 C 16,1 C 15,6 C 87 % 1014,3 hPa 0,0 l/m 0 min 0 min 0 W/m 0,0 km/h (0 Bft) 97,87 %
16.06.2020 23:16 18,4 C 16,1 C 15,6 C 87 % 1014,3 hPa 0,0 l/m 0 min 0 min 0 W/m 0,0 km/h (0 Bft) 97,87 %
16.06.2020 23:18 18,3 C 16,1 C 15,6 C 87 % 1014,3 hPa 0,0 l/m 0 min 0 min 0 W/m 0,0 km/h (0 Bft) 97,87 %
16.06.2020 23:20 18,3 C 16,1 C 15,6 C 87 % 1014,4 hPa 0,0 l/m 0 min 0 min 0 W/m 0,0 km/h (0 Bft) 97,83 %
16.06.2020 23:22 18,3 C 16,1 C 15,6 C 87 % 1014,4 hPa 0,0 l/m 0 min 0 min 0 W/m 0,0 km/h (0 Bft) 97,87 %
16.06.2020 23:24 18,2 C 16,1 C 15,6 C 87 % 1014,4 hPa 0,0 l/m 0 min 0 min 0 W/m 0,0 km/h (0 Bft) 97,87 %
16.06.2020 23:26 18,2 C 16,1 C 15,6 C 87 % 1014,3 hPa 0,0 l/m 0 min 0 min 0 W/m 0,0 km/h (0 Bft) 95,74 %
16.06.2020 23:28 18,2 C 16,1 C 15,6 C 87 % 1014,3 hPa 0,0 l/m 0 min 0 min 0 W/m 0,0 km/h (0 Bft) 97,87 %
16.06.2020 23:30 18,1 C 16,1 C 15,6 C 87 % 1014,3 hPa 0,0 l/m 0 min 0 min 0 W/m 0,0 km/h (0 Bft) 100,00 %
16.06.2020 23:32 18,1 C 16,1 C 15,6 C 88 % 1014,3 hPa 0,0 l/m 0 min 0 min 0 W/m 0,0 km/h (0 Bft) 97,83 %
16.06.2020 23:34 18,1 C 16,1 C 15,6 C 87 % 1014,3 hPa 0,0 l/m 0 min 0 min 0 W/m 0,0 km/h (0 Bft) 100,00 %
16.06.2020 23:36 18,0 C 16,1 C 15,6 C 88 % 1014,3 hPa 0,0 l/m 0 min 0 min 0 W/m 0,0 km/h (0 Bft) 100,00 %
16.06.2020 23:38 17,9 C 16,1 C 15,6 C 88 % 1014,2 hPa 0,0 l/m 0 min 0 min 0 W/m 0,0 km/h (0 Bft) 100,00 %
16.06.2020 23:40 17,9 C 16,1 C 15,6 C 88 % 1014,3 hPa 0,0 l/m 0 min 0 min 0 W/m 0,0 km/h (0 Bft) 97,87 %
16.06.2020 23:42 17,9 C 16,1 C 15,6 C 88 % 1014,2 hPa 0,0 l/m 0 min 0 min 0 W/m 0,0 km/h (0 Bft) 100,00 %
16.06.2020 23:44 17,9 C 16,1 C 15,6 C 88 % 1014,2 hPa 0,0 l/m 0 min 0 min 0 W/m 0,0 km/h (0 Bft) 97,83 %
16.06.2020 23:46 17,8 C 16,1 C 15,6 C 88 % 1014,2 hPa 0,0 l/m 0 min 0 min 0 W/m 0,0 km/h (0 Bft) 100,00 %
16.06.2020 23:48 17,8 C 16,1 C 15,6 C 88 % 1014,1 hPa 0,0 l/m 0 min 0 min 0 W/m 0,0 km/h (0 Bft) 97,87 %
16.06.2020 23:50 17,8 C 16,1 C 15,6 C 88 % 1014,2 hPa 0,0 l/m 0 min 0 min 0 W/m 0,0 km/h (0 Bft) 93,62 %
16.06.2020 23:52 17,8 C 16,1 C 15,6 C 89 % 1014,2 hPa 0,0 l/m 0 min 0 min 0 W/m 0,0 km/h (0 Bft) 100,00 %
16.06.2020 23:54 17,7 C 16,1 C 15,6 C 88 % 1014,2 hPa 0,0 l/m 0 min 0 min 0 W/m 0,0 km/h (0 Bft) 100,00 %
16.06.2020 23:56 17,7 C 15,6 C 15,6 C 89 % 1014,2 hPa 0,0 l/m 0 min 0 min 0 W/m 0,0 km/h (0 Bft) 100,00 %
16.06.2020 23:58 17,7 C 16,1 C 15,6 C 89 % 1014,2 hPa 0,0 l/m 0 min 0 min 0 W/m 0,0 km/h (0 Bft) 97,87 %
_ Min-Zeit 07:18 03:24 03:02 18:12 20:36 - - - - 00:04 22:48
Minimum _ 17,2 C 15,6 C 15,6 C 70 % 1013,7 hPa - - - - 0,0 km/h (0 Bft) 89,36 %
_ Max-Zeit 15:12 14:50 14:52 07:10 00:16 02:56 14:46 01:42 14:52 02:52 00:00
Maximum _ 22,5 C 25,0 C 21,1 C 97 % 1016,6 hPa 0,2 l/m 2 min 2 min 511 W/m 16,1 km/h
SO (3 Bft)
100,00 %
Durchschnitt _ 19,8 C 19,2 C 18,0 C 86 % 1015,4 hPa #1,0 l/m #48 min. #4:58 h 187 W/m 2,5 km/h (1 Bft) 97,62 %
© 2020 W. Hausmann